PWSweather.com
Personal Weather Stations
Station Observations
KNCPINNA2
Pinnacle , Pinnacle, NC 27043

Pinnacle Pinnacle, NC 27043

Lat: 36.352557, Lon: -80.4434349

Elevation: 898

Station Type: Ambient Weather WS-1090

Latest ConditionsUpdated 12:12:00 PM EDT Monday, Mar 30, 2015
Currently Today's Max Today's Min Today's Average
Temperature 59.7°F15.4°C 59.7°F15.4°C 36.9°F2.7°C 41.7°F5.4°C
Dew Point 45.8°F7.7°C 46.0°F7.8°C 19.9°F-6.7°C 28.9°F-1.7°C
Winds 0.7 mph SW1.1 kmh SW 6.0 mph WSW9.7 kmh WSW - 0.8 mph 1.3 kmh
Wind Gusts 7.6 mph12.2 kmh 13.0 mph20.9 kmh - -
Humidity 60% 75% 47% 60%
Pressure 29.92 in1013.2 mb 30.08 in1018.6 mb 29.91 in1012.9 mb -
Hour Temp Dew Point Humidity Winds Wind Gusts Pressure Precip Precip Rate Daily Precip Total
12:12 PM 59.7°F15.4°C 45.8°F7.7°C 60% 0.7 mph SW1.1 kmh SW 7.6 mph12.2 kmh 29.92 in1013.2 mb 0.00 in0.0 mm 0.00 in0.0 mm 0.00 in0.0 mm
12:11 PM 59.7°F15.4°C 45.8°F7.7°C 60% 3.8 mph SW6.1 kmh SW 7.6 mph12.2 kmh 29.92 in1013.2 mb 0.00 in0.0 mm 0.00 in0.0 mm 0.00 in0.0 mm
12:10 PM 59.7°F15.4°C 45.4°F7.4°C 59% 3.8 mph SW6.1 kmh SW 7.6 mph12.2 kmh 29.92 in1013.2 mb 0.00 in0.0 mm 0.00 in0.0 mm 0.00 in0.0 mm
12:09 PM 59.7°F15.4°C 45.8°F7.7°C 60% 1.6 mph SW2.6 kmh SW 6.9 mph11.1 kmh 29.92 in1013.2 mb 0.00 in0.0 mm 0.00 in0.0 mm 0.00 in0.0 mm
12:08 PM 59.7°F15.4°C 45.8°F7.7°C 60% 3.8 mph SW6.1 kmh SW 6.9 mph11.1 kmh 29.92 in1013.2 mb 0.00 in0.0 mm 0.00 in0.0 mm 0.00 in0.0 mm
12:07 PM 59.0°F15.0°C 46.0°F7.8°C 62% 3.1 mph SW5.0 kmh SW 10.7 mph17.2 kmh 29.92 in1013.2 mb 0.00 in0.0 mm 0.00 in0.0 mm 0.00 in0.0 mm
12:06 PM 59.0°F15.0°C 46.0°F7.8°C 62% 3.1 mph SW5.0 kmh SW 13.0 mph20.9 kmh 29.92 in1013.2 mb 0.00 in0.0 mm 0.00 in0.0 mm 0.00 in0.0 mm
12:05 PM 59.0°F15.0°C 46.0°F7.8°C 62% 3.1 mph SW5.0 kmh SW 13.0 mph20.9 kmh 29.92 in1013.2 mb 0.00 in0.0 mm 0.00 in0.0 mm 0.00 in0.0 mm
12:04 PM 59.0°F15.0°C 46.0°F7.8°C 62% 3.1 mph SW5.0 kmh SW 13.0 mph20.9 kmh 29.92 in1013.2 mb 0.00 in0.0 mm 0.00 in0.0 mm 0.00 in0.0 mm
12:03 PM 59.0°F15.0°C 46.0°F7.8°C 62% 3.1 mph SW5.0 kmh SW 13.0 mph20.9 kmh 29.91 in1012.9 mb 0.00 in0.0 mm 0.00 in0.0 mm 0.00 in0.0 mm
12:02 PM 59.0°F15.0°C 46.0°F7.8°C 62% 3.1 mph SW5.0 kmh SW 13.0 mph20.9 kmh 29.92 in1013.2 mb 0.00 in0.0 mm 0.00 in0.0 mm 0.00 in0.0 mm
12:01 PM 59.0°F15.0°C 46.0°F7.8°C 62% 3.1 mph SW5.0 kmh SW 13.0 mph20.9 kmh 29.92 in1013.2 mb 0.00 in0.0 mm 0.00 in0.0 mm 0.00 in0.0 mm
12:00 PM 59.0°F15.0°C 46.0°F7.8°C 62% 3.1 mph SW5.0 kmh SW 13.0 mph20.9 kmh 29.92 in1013.2 mb 0.00 in0.0 mm 0.00 in0.0 mm 0.00 in0.0 mm
11:59 AM 59.0°F15.0°C 45.6°F7.6°C 61% 3.8 mph SW6.1 kmh SW 13.0 mph20.9 kmh 29.92 in1013.2 mb 0.00 in0.0 mm 0.00 in0.0 mm 0.00 in0.0 mm
11:58 AM 59.2°F15.1°C 45.8°F7.7°C 61% 3.1 mph SW5.0 kmh SW 13.0 mph20.9 kmh 29.92 in1013.2 mb 0.00 in0.0 mm 0.00 in0.0 mm 0.00 in0.0 mm
11:57 AM 59.2°F15.1°C 45.3°F7.4°C 60% 4.5 mph WSW7.2 kmh WSW 13.0 mph20.9 kmh 29.92 in1013.2 mb 0.00 in0.0 mm 0.00 in0.0 mm 0.00 in0.0 mm
11:56 AM 59.4°F15.2°C 45.0°F7.2°C 59% 6.0 mph WSW9.7 kmh WSW 13.0 mph20.9 kmh 29.92 in1013.2 mb 0.00 in0.0 mm 0.00 in0.0 mm 0.00 in0.0 mm
11:55 AM 59.5°F15.3°C 44.8°F7.1°C 58% 3.8 mph WSW6.1 kmh WSW 9.2 mph14.8 kmh 29.92 in1013.2 mb 0.00 in0.0 mm 0.00 in0.0 mm 0.00 in0.0 mm
11:54 AM 59.5°F15.3°C 44.3°F6.8°C 57% 4.5 mph WSW7.2 kmh WSW 9.2 mph14.8 kmh 29.92 in1013.2 mb 0.00 in0.0 mm 0.00 in0.0 mm 0.00 in0.0 mm
11:53 AM 59.7°F15.4°C 44.9°F7.2°C 58% 3.1 mph WSW5.0 kmh WSW 9.2 mph14.8 kmh 29.92 in1013.2 mb 0.00 in0.0 mm 0.00 in0.0 mm 0.00 in0.0 mm
11:52 AM 59.7°F15.4°C 44.9°F7.2°C 58% 5.4 mph W8.7 kmh W 9.2 mph14.8 kmh 29.93 in1013.5 mb 0.00 in0.0 mm 0.00 in0.0 mm 0.00 in0.0 mm
11:51 AM 59.5°F15.3°C 45.2°F7.3°C 59% 1.6 mph WSW2.6 kmh WSW 6.0 mph9.7 kmh 29.93 in1013.5 mb 0.00 in0.0 mm 0.00 in0.0 mm 0.00 in0.0 mm
11:50 AM 59.4°F15.2°C 45.0°F7.2°C 59% 0.7 mph W1.1 kmh W 6.0 mph9.7 kmh 29.93 in1013.5 mb 0.00 in0.0 mm 0.00 in0.0 mm 0.00 in0.0 mm
11:49 AM 59.4°F15.2°C 44.6°F7.0°C 58% 0.7 mph W1.1 kmh W 6.0 mph9.7 kmh 29.93 in1013.5 mb 0.00 in0.0 mm 0.00 in0.0 mm 0.00 in0.0 mm
11:48 AM 59.2°F15.1°C 44.0°F6.7°C 57% 3.8 mph W6.1 kmh W 6.0 mph9.7 kmh 29.93 in1013.5 mb 0.00 in0.0 mm 0.00 in0.0 mm 0.00 in0.0 mm
11:47 AM 58.8°F14.9°C 44.5°F6.9°C 59% 0.7 mph W1.1 kmh W 5.4 mph8.7 kmh 29.94 in1013.9 mb 0.00 in0.0 mm 0.00 in0.0 mm 0.00 in0.0 mm
11:46 AM 57.2°F14.0°C 42.6°F5.9°C 58% 0.7 mph W1.1 kmh W 5.4 mph8.7 kmh 29.93 in1013.5 mb 0.00 in0.0 mm 0.00 in0.0 mm 0.00 in0.0 mm
11:45 AM 57.2°F14.0°C 42.6°F5.9°C 58% 0.7 mph W1.1 kmh W 5.4 mph8.7 kmh 29.93 in1013.5 mb 0.00 in0.0 mm 0.00 in0.0 mm 0.00 in0.0 mm
11:44 AM 57.2°F14.0°C 42.6°F5.9°C 58% 0.7 mph WSW1.1 kmh WSW 5.4 mph8.7 kmh 29.93 in1013.5 mb 0.00 in0.0 mm 0.00 in0.0 mm 0.00 in0.0 mm
11:43 AM 57.2°F14.0°C 42.6°F5.9°C 58% 0.7 mph WSW1.1 kmh WSW 5.4 mph8.7 kmh 29.93 in1013.5 mb 0.00 in0.0 mm 0.00 in0.0 mm 0.00 in0.0 mm
11:42 AM 57.2°F14.0°C 42.6°F5.9°C 58% 0.7 mph WSW1.1 kmh WSW 5.4 mph8.7 kmh 29.94 in1013.9 mb 0.00 in0.0 mm 0.00 in0.0 mm 0.00 in0.0 mm
11:41 AM 57.2°F14.0°C 42.6°F5.9°C 58% 3.1 mph WSW5.0 kmh WSW 5.4 mph8.7 kmh 29.93 in1013.5 mb 0.00 in0.0 mm 0.00 in0.0 mm 0.00 in0.0 mm
11:40 AM 57.2°F14.0°C 42.6°F5.9°C 58% 2.2 mph WSW3.5 kmh WSW 5.4 mph8.7 kmh 29.93 in1013.5 mb 0.00 in0.0 mm 0.00 in0.0 mm 0.00 in0.0 mm
11:39 AM 56.8°F13.8°C 42.2°F5.7°C 58% 0.7 mph WSW1.1 kmh WSW 5.4 mph8.7 kmh 29.94 in1013.9 mb 0.00 in0.0 mm 0.00 in0.0 mm 0.00 in0.0 mm
11:38 AM 56.7°F13.7°C 41.6°F5.3°C 57% 1.6 mph WSW2.6 kmh WSW 5.4 mph8.7 kmh 29.94 in1013.9 mb 0.00 in0.0 mm 0.00 in0.0 mm 0.00 in0.0 mm
11:37 AM 56.5°F13.6°C 41.9°F5.5°C 58% 2.2 mph WSW3.5 kmh WSW 5.4 mph8.7 kmh 29.94 in1013.9 mb 0.00 in0.0 mm 0.00 in0.0 mm 0.00 in0.0 mm
11:36 AM 56.3°F13.5°C 41.7°F5.4°C 58% 1.6 mph WSW2.6 kmh WSW 5.4 mph8.7 kmh 29.94 in1013.9 mb 0.00 in0.0 mm 0.00 in0.0 mm 0.00 in0.0 mm
11:35 AM 56.1°F13.4°C 41.1°F5.1°C 57% 3.1 mph WSW5.0 kmh WSW 5.4 mph8.7 kmh 29.94 in1013.9 mb 0.00 in0.0 mm 0.00 in0.0 mm 0.00 in0.0 mm
11:34 AM 55.9°F13.3°C 41.8°F5.4°C 59% 0.7 mph WSW1.1 kmh WSW 4.5 mph7.2 kmh 29.93 in1013.5 mb 0.00 in0.0 mm 0.00 in0.0 mm 0.00 in0.0 mm
11:33 AM 55.9°F13.3°C 41.8°F5.4°C 59% 0.7 mph WSW1.1 kmh WSW 4.5 mph7.2 kmh 29.93 in1013.5 mb 0.00 in0.0 mm 0.00 in0.0 mm 0.00 in0.0 mm
11:32 AM 55.4°F13.0°C 41.3°F5.2°C 59% 0.7 mph WSW1.1 kmh WSW 4.5 mph7.2 kmh 29.94 in1013.9 mb 0.00 in0.0 mm 0.00 in0.0 mm 0.00 in0.0 mm
11:31 AM 55.4°F13.0°C 41.3°F5.2°C 59% 0.7 mph WSW1.1 kmh WSW 4.5 mph7.2 kmh 29.93 in1013.5 mb 0.00 in0.0 mm 0.00 in0.0 mm 0.00 in0.0 mm
11:30 AM 55.2°F12.9°C 41.6°F5.3°C 60% Calm Calm 4.5 mph7.2 kmh 29.93 in1013.5 mb 0.00 in0.0 mm 0.00 in0.0 mm 0.00 in0.0 mm
11:29 AM 54.0°F12.2°C 40.0°F4.4°C 59% 2.2 mph WSW3.5 kmh WSW 4.5 mph7.2 kmh 29.94 in1013.9 mb 0.00 in0.0 mm 0.00 in0.0 mm 0.00 in0.0 mm
11:28 AM 54.0°F12.2°C 40.0°F4.4°C 59% 2.2 mph SW3.5 kmh SW 4.5 mph7.2 kmh 29.94 in1013.9 mb 0.00 in0.0 mm 0.00 in0.0 mm 0.00 in0.0 mm
11:27 AM 54.0°F12.2°C 40.0°F4.4°C 59% 2.2 mph SW3.5 kmh SW 4.5 mph7.2 kmh 29.93 in1013.5 mb 0.00 in0.0 mm 0.00 in0.0 mm 0.00 in0.0 mm
11:26 AM 54.0°F12.2°C 40.0°F4.4°C 59% 2.2 mph SW3.5 kmh SW 4.5 mph7.2 kmh 29.93 in1013.5 mb 0.00 in0.0 mm 0.00 in0.0 mm 0.00 in0.0 mm
11:25 AM 54.0°F12.2°C 40.0°F4.4°C 59% 2.2 mph SW3.5 kmh SW 4.5 mph7.2 kmh 29.94 in1013.9 mb 0.00 in0.0 mm 0.00 in0.0 mm 0.00 in0.0 mm
11:24 AM 54.0°F12.2°C 40.0°F4.4°C 59% 2.2 mph SW3.5 kmh SW 6.0 mph9.7 kmh 29.94 in1013.9 mb 0.00 in0.0 mm 0.00 in0.0 mm 0.00 in0.0 mm
11:23 AM 53.2°F11.8°C 40.1°F4.5°C 61% 1.6 mph SW2.6 kmh SW 6.0 mph9.7 kmh 29.94 in1013.9 mb 0.00 in0.0 mm 0.00 in0.0 mm 0.00 in0.0 mm
11:22 AM 53.2°F11.8°C 40.1°F4.5°C 61% 1.6 mph SW2.6 kmh SW 6.0 mph9.7 kmh 29.94 in1013.9 mb 0.00 in0.0 mm 0.00 in0.0 mm 0.00 in0.0 mm
11:21 AM 53.2°F11.8°C 40.1°F4.5°C 61% 1.6 mph SW2.6 kmh SW 6.0 mph9.7 kmh 29.94 in1013.9 mb 0.00 in0.0 mm 0.00 in0.0 mm 0.00 in0.0 mm
11:20 AM 53.2°F11.8°C 40.1°F4.5°C 61% 1.6 mph SW2.6 kmh SW 6.0 mph9.7 kmh 29.94 in1013.9 mb 0.00 in0.0 mm 0.00 in0.0 mm 0.00 in0.0 mm
11:19 AM 53.2°F11.8°C 40.1°F4.5°C 61% 1.6 mph SW2.6 kmh SW 6.0 mph9.7 kmh 29.94 in1013.9 mb 0.00 in0.0 mm 0.00 in0.0 mm 0.00 in0.0 mm
11:18 AM 53.1°F11.7°C 40.0°F4.4°C 61% 0.7 mph WSW1.1 kmh WSW 6.0 mph9.7 kmh 29.94 in1013.9 mb 0.00 in0.0 mm 0.00 in0.0 mm 0.00 in0.0 mm
11:17 AM 52.9°F11.6°C 39.0°F3.9°C 59% 2.2 mph WSW3.5 kmh WSW 6.0 mph9.7 kmh 29.94 in1013.9 mb 0.00 in0.0 mm 0.00 in0.0 mm 0.00 in0.0 mm
11:16 AM 52.9°F11.6°C 39.0°F3.9°C 59% 2.2 mph WSW3.5 kmh WSW 6.0 mph9.7 kmh 29.94 in1013.9 mb 0.00 in0.0 mm 0.00 in0.0 mm 0.00 in0.0 mm
11:15 AM 52.9°F11.6°C 39.0°F3.9°C 59% 2.2 mph WSW3.5 kmh WSW 6.0 mph9.7 kmh 29.93 in1013.5 mb 0.00 in0.0 mm 0.00 in0.0 mm 0.00 in0.0 mm
11:14 AM 53.1°F11.7°C 39.1°F3.9°C 59% 2.2 mph SW3.5 kmh SW 6.0 mph9.7 kmh 29.94 in1013.9 mb 0.00 in0.0 mm 0.00 in0.0 mm 0.00 in0.0 mm
11:13 AM 53.1°F11.7°C 39.1°F3.9°C 59% 2.2 mph SW3.5 kmh SW 4.5 mph7.2 kmh 29.94 in1013.9 mb 0.00 in0.0 mm 0.00 in0.0 mm 0.00 in0.0 mm
11:12 AM 53.1°F11.7°C 39.6°F4.2°C 60% 3.1 mph SSW5.0 kmh SSW 4.5 mph7.2 kmh 29.94 in1013.9 mb 0.00 in0.0 mm 0.00 in0.0 mm 0.00 in0.0 mm
11:11 AM 52.9°F11.6°C 39.4°F4.1°C 60% 1.6 mph SSW2.6 kmh SSW 4.5 mph7.2 kmh 29.94 in1013.9 mb 0.00 in0.0 mm 0.00 in0.0 mm 0.00 in0.0 mm
11:10 AM 52.9°F11.6°C 39.8°F4.3°C 61% 1.6 mph S2.6 kmh S 4.5 mph7.2 kmh 29.94 in1013.9 mb 0.00 in0.0 mm 0.00 in0.0 mm 0.00 in0.0 mm
11:09 AM 51.6°F10.9°C 39.0°F3.9°C 62% 0.7 mph S1.1 kmh S 2.2 mph3.5 kmh 29.94 in1013.9 mb 0.00 in0.0 mm 0.00 in0.0 mm 0.00 in0.0 mm
11:08 AM 51.6°F10.9°C 39.0°F3.9°C 62% 0.7 mph S1.1 kmh S 2.2 mph3.5 kmh 29.94 in1013.9 mb 0.00 in0.0 mm 0.00 in0.0 mm 0.00 in0.0 mm
11:07 AM 51.6°F10.9°C 39.0°F3.9°C 62% 0.7 mph S1.1 kmh S 2.2 mph3.5 kmh 29.94 in1013.9 mb 0.00 in0.0 mm 0.00 in0.0 mm 0.00 in0.0 mm
11:06 AM 51.6°F10.9°C 39.0°F3.9°C 62% 0.7 mph S1.1 kmh S 2.2 mph3.5 kmh 29.94 in1013.9 mb 0.00 in0.0 mm 0.00 in0.0 mm 0.00 in0.0 mm
11:05 AM 51.6°F10.9°C 39.0°F3.9°C 62% 0.7 mph S1.1 kmh S 3.8 mph6.1 kmh 29.94 in1013.9 mb 0.00 in0.0 mm 0.00 in0.0 mm 0.00 in0.0 mm
11:04 AM 51.6°F10.9°C 39.0°F3.9°C 62% 0.7 mph SSW1.1 kmh SSW 3.8 mph6.1 kmh 29.93 in1013.5 mb 0.00 in0.0 mm 0.00 in0.0 mm 0.00 in0.0 mm
11:03 AM 51.6°F10.9°C 39.0°F3.9°C 62% 0.7 mph SSW1.1 kmh SSW 3.8 mph6.1 kmh 29.94 in1013.9 mb 0.00 in0.0 mm 0.00 in0.0 mm 0.00 in0.0 mm
11:02 AM 51.6°F10.9°C 39.0°F3.9°C 62% 0.7 mph SW1.1 kmh SW 3.8 mph6.1 kmh 29.94 in1013.9 mb 0.00 in0.0 mm 0.00 in0.0 mm 0.00 in0.0 mm
11:01 AM 51.6°F10.9°C 39.0°F3.9°C 62% 0.7 mph SW1.1 kmh SW 3.8 mph6.1 kmh 29.94 in1013.9 mb 0.00 in0.0 mm 0.00 in0.0 mm 0.00 in0.0 mm
11:00 AM 51.6°F10.9°C 39.0°F3.9°C 62% 0.7 mph SW1.1 kmh SW 3.8 mph6.1 kmh 29.94 in1013.9 mb 0.00 in0.0 mm 0.00 in0.0 mm 0.00 in0.0 mm
10:59 AM 51.6°F10.9°C 39.0°F3.9°C 62% 0.7 mph WSW1.1 kmh WSW 3.8 mph6.1 kmh 29.94 in1013.9 mb 0.00 in0.0 mm 0.00 in0.0 mm 0.00 in0.0 mm
10:58 AM 51.6°F10.9°C 39.0°F3.9°C 62% 0.7 mph WSW1.1 kmh WSW 3.8 mph6.1 kmh 29.94 in1013.9 mb 0.00 in0.0 mm 0.00 in0.0 mm 0.00 in0.0 mm
10:57 AM 51.6°F10.9°C 39.0°F3.9°C 62% 0.7 mph WSW1.1 kmh WSW 3.8 mph6.1 kmh 29.94 in1013.9 mb 0.00 in0.0 mm 0.00 in0.0 mm 0.00 in0.0 mm
10:56 AM 51.6°F10.9°C 39.0°F3.9°C 62% 0.7 mph W1.1 kmh W 3.8 mph6.1 kmh 29.95 in1014.2 mb 0.00 in0.0 mm 0.00 in0.0 mm 0.00 in0.0 mm
10:55 AM 51.3°F10.7°C 39.1°F3.9°C 63% 1.6 mph W2.6 kmh W 3.1 mph5.0 kmh 29.95 in1014.2 mb 0.00 in0.0 mm 0.00 in0.0 mm 0.00 in0.0 mm
10:54 AM 51.3°F10.7°C 39.1°F3.9°C 63% 1.6 mph W2.6 kmh W 3.1 mph5.0 kmh 29.95 in1014.2 mb 0.00 in0.0 mm 0.00 in0.0 mm 0.00 in0.0 mm
10:53 AM 51.3°F10.7°C 39.1°F3.9°C 63% 1.6 mph W2.6 kmh W 3.1 mph5.0 kmh 29.94 in1013.9 mb 0.00 in0.0 mm 0.00 in0.0 mm 0.00 in0.0 mm
10:52 AM 51.1°F10.6°C 39.3°F4.1°C 64% 2.2 mph WSW3.5 kmh WSW 3.1 mph5.0 kmh 29.94 in1013.9 mb 0.00 in0.0 mm 0.00 in0.0 mm 0.00 in0.0 mm
10:51 AM 49.8°F9.9°C 38.1°F3.4°C 64% 0.7 mph WSW1.1 kmh WSW 3.1 mph5.0 kmh 29.94 in1013.9 mb 0.00 in0.0 mm 0.00 in0.0 mm 0.00 in0.0 mm
10:50 AM 49.8°F9.9°C 38.1°F3.4°C 64% 0.7 mph WSW1.1 kmh WSW 3.1 mph5.0 kmh 29.94 in1013.9 mb 0.00 in0.0 mm 0.00 in0.0 mm 0.00 in0.0 mm
10:49 AM 49.8°F9.9°C 38.1°F3.4°C 64% 0.7 mph WSW1.1 kmh WSW 3.1 mph5.0 kmh 29.94 in1013.9 mb 0.00 in0.0 mm 0.00 in0.0 mm 0.00 in0.0 mm
10:48 AM 49.8°F9.9°C 38.1°F3.4°C 64% 0.7 mph SW1.1 kmh SW 3.1 mph5.0 kmh 29.95 in1014.2 mb 0.00 in0.0 mm 0.00 in0.0 mm 0.00 in0.0 mm
10:47 AM 49.6°F9.8°C 38.4°F3.6°C 65% 0.7 mph SW1.1 kmh SW 3.1 mph5.0 kmh 29.95 in1014.2 mb 0.00 in0.0 mm 0.00 in0.0 mm 0.00 in0.0 mm
10:46 AM 49.5°F9.7°C 37.8°F3.2°C 64% 0.7 mph SSW1.1 kmh SSW 3.1 mph5.0 kmh 29.95 in1014.2 mb 0.00 in0.0 mm 0.00 in0.0 mm 0.00 in0.0 mm
10:45 AM 49.5°F9.7°C 37.8°F3.2°C 64% 0.7 mph SSW1.1 kmh SSW 3.1 mph5.0 kmh 29.94 in1013.9 mb 0.00 in0.0 mm 0.00 in0.0 mm 0.00 in0.0 mm
10:44 AM 49.5°F9.7°C 37.8°F3.2°C 64% 0.7 mph SSW1.1 kmh SSW 3.1 mph5.0 kmh 29.95 in1014.2 mb 0.00 in0.0 mm 0.00 in0.0 mm 0.00 in0.0 mm
10:43 AM 49.3°F9.6°C 37.6°F3.1°C 64% Calm Calm 3.1 mph5.0 kmh 29.95 in1014.2 mb 0.00 in0.0 mm 0.00 in0.0 mm 0.00 in0.0 mm
10:42 AM 49.5°F9.7°C 37.8°F3.2°C 64% 0.7 mph S1.1 kmh S 3.1 mph5.0 kmh 29.95 in1014.2 mb 0.00 in0.0 mm 0.00 in0.0 mm 0.00 in0.0 mm
10:41 AM 49.5°F9.7°C 37.4°F3.0°C 63% 1.6 mph S2.6 kmh S 3.1 mph5.0 kmh 29.95 in1014.2 mb 0.00 in0.0 mm 0.00 in0.0 mm 0.00 in0.0 mm
10:40 AM 49.5°F9.7°C 37.8°F3.2°C 64% 1.6 mph S2.6 kmh S 3.1 mph5.0 kmh 29.94 in1013.9 mb 0.00 in0.0 mm 0.00 in0.0 mm 0.00 in0.0 mm
10:39 AM 47.3°F8.5°C 37.3°F2.9°C 68% 1.6 mph S2.6 kmh S 3.1 mph5.0 kmh 29.95 in1014.2 mb 0.00 in0.0 mm 0.00 in0.0 mm 0.00 in0.0 mm
10:38 AM 47.3°F8.5°C 37.3°F2.9°C 68% 1.6 mph S2.6 kmh S 3.1 mph5.0 kmh 29.94 in1013.9 mb 0.00 in0.0 mm 0.00 in0.0 mm 0.00 in0.0 mm
10:37 AM 47.3°F8.5°C 37.3°F2.9°C 68% 1.6 mph S2.6 kmh S 3.1 mph5.0 kmh 29.94 in1013.9 mb 0.00 in0.0 mm 0.00 in0.0 mm 0.00 in0.0 mm
10:36 AM 47.3°F8.5°C 37.3°F2.9°C 68% 1.6 mph S2.6 kmh S 3.1 mph5.0 kmh 29.94 in1013.9 mb 0.00 in0.0 mm 0.00 in0.0 mm 0.00 in0.0 mm
10:35 AM 47.3°F8.5°C 37.3°F2.9°C 68% 1.6 mph S2.6 kmh S 3.1 mph5.0 kmh 29.94 in1013.9 mb 0.00 in0.0 mm 0.00 in0.0 mm 0.00 in0.0 mm
10:34 AM 47.3°F8.5°C 37.3°F2.9°C 68% 1.6 mph S2.6 kmh S 3.1 mph5.0 kmh 29.94 in1013.9 mb 0.00 in0.0 mm 0.00 in0.0 mm 0.00 in0.0 mm
10:33 AM 47.3°F8.5°C 37.3°F2.9°C 68% 1.6 mph SSW2.6 kmh SSW 3.1 mph5.0 kmh 29.94 in1013.9 mb 0.00 in0.0 mm 0.00 in0.0 mm 0.00 in0.0 mm
10:32 AM 47.3°F8.5°C 37.3°F2.9°C 68% 1.6 mph SSW2.6 kmh SSW 3.8 mph6.1 kmh 29.94 in1013.9 mb 0.00 in0.0 mm 0.00 in0.0 mm 0.00 in0.0 mm
10:31 AM 47.3°F8.5°C 37.3°F2.9°C 68% 1.6 mph SW2.6 kmh SW 3.8 mph6.1 kmh 29.94 in1013.9 mb 0.00 in0.0 mm 0.00 in0.0 mm 0.00 in0.0 mm
10:30 AM 47.1°F8.4°C 37.1°F2.8°C 68% 1.6 mph SW2.6 kmh SW 3.8 mph6.1 kmh 29.94 in1013.9 mb 0.00 in0.0 mm 0.00 in0.0 mm 0.00 in0.0 mm
10:29 AM 47.1°F8.4°C 37.1°F2.8°C 68% 0.7 mph SW1.1 kmh SW 3.8 mph6.1 kmh 29.94 in1013.9 mb 0.00 in0.0 mm 0.00 in0.0 mm 0.00 in0.0 mm
10:28 AM 47.1°F8.4°C 37.1°F2.8°C 68% Calm Calm 3.8 mph6.1 kmh 29.94 in1013.9 mb 0.00 in0.0 mm 0.00 in0.0 mm 0.00 in0.0 mm
10:27 AM 46.9°F8.3°C 37.7°F3.2°C 70% Calm Calm 3.8 mph6.1 kmh 29.94 in1013.9 mb 0.00 in0.0 mm 0.00 in0.0 mm 0.00 in0.0 mm
10:26 AM 46.8°F8.2°C 37.5°F3.1°C 70% 0.7 mph SW1.1 kmh SW 3.8 mph6.1 kmh 29.94 in1013.9 mb 0.00 in0.0 mm 0.00 in0.0 mm 0.00 in0.0 mm
10:25 AM 46.6°F8.1°C 37.3°F2.9°C 70% 1.6 mph SW2.6 kmh SW 3.8 mph6.1 kmh 29.94 in1013.9 mb 0.00 in0.0 mm 0.00 in0.0 mm 0.00 in0.0 mm
10:24 AM 46.4°F8.0°C 37.5°F3.1°C 71% Calm Calm 3.8 mph6.1 kmh 29.94 in1013.9 mb 0.00 in0.0 mm 0.00 in0.0 mm 0.00 in0.0 mm
10:23 AM 46.0°F7.8°C 36.8°F2.7°C 70% 1.6 mph SW2.6 kmh SW 3.8 mph6.1 kmh 29.94 in1013.9 mb 0.00 in0.0 mm 0.00 in0.0 mm 0.00 in0.0 mm
10:22 AM 45.9°F7.7°C 36.6°F2.6°C 70% 1.6 mph SW2.6 kmh SW 3.8 mph6.1 kmh 29.94 in1013.9 mb 0.00 in0.0 mm 0.00 in0.0 mm 0.00 in0.0 mm
10:21 AM 45.9°F7.7°C 36.6°F2.6°C 70% 1.6 mph S2.6 kmh S 3.8 mph6.1 kmh 29.94 in1013.9 mb 0.00 in0.0 mm 0.00 in0.0 mm 0.00 in0.0 mm
10:20 AM 45.7°F7.6°C 36.8°F2.7°C 71% 0.7 mph S1.1 kmh S 3.8 mph6.1 kmh 29.94 in1013.9 mb 0.00 in0.0 mm 0.00 in0.0 mm 0.00 in0.0 mm
10:19 AM 45.3°F7.4°C 36.8°F2.7°C 72% 0.7 mph S1.1 kmh S 3.1 mph5.0 kmh 29.94 in1013.9 mb 0.00 in0.0 mm 0.00 in0.0 mm 0.00 in0.0 mm
10:18 AM 45.1°F7.3°C 36.3°F2.4°C 71% 1.6 mph S2.6 kmh S 3.1 mph5.0 kmh 29.94 in1013.9 mb 0.00 in0.0 mm 0.00 in0.0 mm 0.00 in0.0 mm
10:17 AM 44.8°F7.1°C 36.7°F2.6°C 73% Calm Calm 3.1 mph5.0 kmh 29.94 in1013.9 mb 0.00 in0.0 mm 0.00 in0.0 mm 0.00 in0.0 mm
10:16 AM 44.8°F7.1°C 36.7°F2.6°C 73% Calm Calm 3.1 mph5.0 kmh 29.94 in1013.9 mb 0.00 in0.0 mm 0.00 in0.0 mm 0.00 in0.0 mm
10:15 AM 44.8°F7.1°C 36.7°F2.6°C 73% 0.7 mph SSE1.1 kmh SSE 3.1 mph5.0 kmh 29.94 in1013.9 mb 0.00 in0.0 mm 0.00 in0.0 mm 0.00 in0.0 mm
10:14 AM 44.8°F7.1°C 36.7°F2.6°C 73% 1.6 mph SSE2.6 kmh SSE 3.1 mph5.0 kmh 29.94 in1013.9 mb 0.00 in0.0 mm 0.00 in0.0 mm 0.00 in0.0 mm
10:13 AM 44.6°F7.0°C 36.5°F2.5°C 73% 1.6 mph SSE2.6 kmh SSE 3.1 mph5.0 kmh 29.93 in1013.5 mb 0.00 in0.0 mm 0.00 in0.0 mm 0.00 in0.0 mm
10:12 AM 44.6°F7.0°C 36.5°F2.5°C 73% 0.7 mph SSE1.1 kmh SSE 3.8 mph6.1 kmh 29.94 in1013.9 mb 0.00 in0.0 mm 0.00 in0.0 mm 0.00 in0.0 mm
10:11 AM 44.6°F7.0°C 36.5°F2.5°C 73% 0.7 mph SSE1.1 kmh SSE 3.8 mph6.1 kmh 29.95 in1014.2 mb 0.00 in0.0 mm 0.00 in0.0 mm 0.00 in0.0 mm
10:10 AM 44.6°F7.0°C 36.5°F2.5°C 73% 1.6 mph SSE2.6 kmh SSE 3.8 mph6.1 kmh 29.95 in1014.2 mb 0.00 in0.0 mm 0.00 in0.0 mm 0.00 in0.0 mm
10:09 AM 44.4°F6.9°C 36.0°F2.2°C 72% 1.6 mph SSE2.6 kmh SSE 3.8 mph6.1 kmh 29.94 in1013.9 mb 0.00 in0.0 mm 0.00 in0.0 mm 0.00 in0.0 mm
10:08 AM 44.4°F6.9°C 36.0°F2.2°C 72% Calm Calm 3.8 mph6.1 kmh 29.94 in1013.9 mb 0.00 in0.0 mm 0.00 in0.0 mm 0.00 in0.0 mm
10:07 AM 44.6°F7.0°C 36.1°F2.3°C 72% 2.2 mph SSE3.5 kmh SSE 3.8 mph6.1 kmh 29.95 in1014.2 mb 0.00 in0.0 mm 0.00 in0.0 mm 0.00 in0.0 mm
10:06 AM 44.4°F6.9°C 36.0°F2.2°C 72% 1.6 mph SSE2.6 kmh SSE 3.8 mph6.1 kmh 29.94 in1013.9 mb 0.00 in0.0 mm 0.00 in0.0 mm 0.00 in0.0 mm
10:05 AM 44.4°F6.9°C 36.0°F2.2°C 72% 1.6 mph S2.6 kmh S 3.8 mph6.1 kmh 29.94 in1013.9 mb 0.00 in0.0 mm 0.00 in0.0 mm 0.00 in0.0 mm
10:04 AM 44.4°F6.9°C 36.0°F2.2°C 72% 0.7 mph S1.1 kmh S 3.8 mph6.1 kmh 29.94 in1013.9 mb 0.00 in0.0 mm 0.00 in0.0 mm 0.00 in0.0 mm
10:03 AM 44.4°F6.9°C 36.0°F2.2°C 72% 2.2 mph S3.5 kmh S 3.8 mph6.1 kmh 29.95 in1014.2 mb 0.00 in0.0 mm 0.00 in0.0 mm 0.00 in0.0 mm
10:02 AM 44.2°F6.8°C 35.8°F2.1°C 72% Calm Calm 2.2 mph3.5 kmh 29.94 in1013.9 mb 0.00 in0.0 mm 0.00 in0.0 mm 0.00 in0.0 mm
10:01 AM 44.2°F6.8°C 35.8°F2.1°C 72% 0.7 mph S1.1 kmh S 2.2 mph3.5 kmh 29.94 in1013.9 mb 0.00 in0.0 mm 0.00 in0.0 mm 0.00 in0.0 mm
10:00 AM 44.1°F6.7°C 35.6°F2.0°C 72% Calm Calm 2.2 mph3.5 kmh 29.94 in1013.9 mb 0.00 in0.0 mm 0.00 in0.0 mm 0.00 in0.0 mm
09:59 AM 43.9°F6.6°C 35.4°F1.9°C 72% Calm Calm 2.2 mph3.5 kmh 29.94 in1013.9 mb 0.00 in0.0 mm 0.00 in0.0 mm 0.00 in0.0 mm
09:58 AM 43.9°F6.6°C 35.4°F1.9°C 72% 0.7 mph SSW1.1 kmh SSW 2.2 mph3.5 kmh 29.94 in1013.9 mb 0.00 in0.0 mm 0.00 in0.0 mm 0.00 in0.0 mm
09:57 AM 43.7°F6.5°C 35.3°F1.8°C 72% 0.7 mph SSW1.1 kmh SSW 3.1 mph5.0 kmh 29.94 in1013.9 mb 0.00 in0.0 mm 0.00 in0.0 mm 0.00 in0.0 mm
09:56 AM 43.7°F6.5°C 35.3°F1.8°C 72% Calm Calm 3.1 mph5.0 kmh 29.94 in1013.9 mb 0.00 in0.0 mm 0.00 in0.0 mm 0.00 in0.0 mm
09:55 AM 43.5°F6.4°C 35.5°F1.9°C 73% Calm Calm 3.1 mph5.0 kmh 29.94 in1013.9 mb 0.00 in0.0 mm 0.00 in0.0 mm 0.00 in0.0 mm
09:54 AM 43.3°F6.3°C 34.9°F1.6°C 72% Calm Calm 3.1 mph5.0 kmh 29.94 in1013.9 mb 0.00 in0.0 mm 0.00 in0.0 mm 0.00 in0.0 mm
09:53 AM 43.2°F6.2°C 35.1°F1.7°C 73% Calm Calm 3.8 mph6.1 kmh 29.94 in1013.9 mb 0.00 in0.0 mm 0.00 in0.0 mm 0.00 in0.0 mm
09:52 AM 43.2°F6.2°C 35.1°F1.7°C 73% 0.7 mph SSW1.1 kmh SSW 3.8 mph6.1 kmh 29.94 in1013.9 mb 0.00 in0.0 mm 0.00 in0.0 mm 0.00 in0.0 mm
09:51 AM 43.0°F6.1°C 34.9°F1.6°C 73% 0.7 mph SSW1.1 kmh SSW 3.8 mph6.1 kmh 29.94 in1013.9 mb 0.00 in0.0 mm 0.00 in0.0 mm 0.00 in0.0 mm
09:50 AM 43.0°F6.1°C 34.6°F1.4°C 72% 0.7 mph SSW1.1 kmh SSW 3.8 mph6.1 kmh 29.94 in1013.9 mb 0.00 in0.0 mm 0.00 in0.0 mm 0.00 in0.0 mm
09:49 AM 43.0°F6.1°C 34.6°F1.4°C 72% Calm Calm 3.8 mph6.1 kmh 29.94 in1013.9 mb 0.00 in0.0 mm 0.00 in0.0 mm 0.00 in0.0 mm
09:48 AM 43.0°F6.1°C 34.6°F1.4°C 72% 0.7 mph S1.1 kmh S 3.8 mph6.1 kmh 29.93 in1013.5 mb 0.00 in0.0 mm 0.00 in0.0 mm 0.00 in0.0 mm
09:47 AM 42.8°F6.0°C 34.8°F1.6°C 73% 1.6 mph SSW2.6 kmh SSW 3.8 mph6.1 kmh 29.93 in1013.5 mb 0.00 in0.0 mm 0.00 in0.0 mm 0.00 in0.0 mm
09:46 AM 42.8°F6.0°C 34.8°F1.6°C 73% Calm Calm 3.8 mph6.1 kmh 29.94 in1013.9 mb 0.00 in0.0 mm 0.00 in0.0 mm 0.00 in0.0 mm
09:45 AM 42.8°F6.0°C 34.4°F1.3°C 72% Calm Calm 3.8 mph6.1 kmh 29.94 in1013.9 mb 0.00 in0.0 mm 0.00 in0.0 mm 0.00 in0.0 mm
09:44 AM 42.8°F6.0°C 34.4°F1.3°C 72% 0.7 mph S1.1 kmh S 3.8 mph6.1 kmh 29.93 in1013.5 mb 0.00 in0.0 mm 0.00 in0.0 mm 0.00 in0.0 mm
09:43 AM 42.6°F5.9°C 34.6°F1.4°C 73% 0.7 mph SSW1.1 kmh SSW 3.1 mph5.0 kmh 29.93 in1013.5 mb 0.00 in0.0 mm 0.00 in0.0 mm 0.00 in0.0 mm
09:42 AM 42.4°F5.8°C 34.4°F1.3°C 73% Calm Calm 3.1 mph5.0 kmh 29.93 in1013.5 mb 0.00 in0.0 mm 0.00 in0.0 mm 0.00 in0.0 mm
09:41 AM 42.4°F5.8°C 34.4°F1.3°C 73% Calm Calm 3.1 mph5.0 kmh 29.93 in1013.5 mb 0.00 in0.0 mm 0.00 in0.0 mm 0.00 in0.0 mm
09:40 AM 42.4°F5.8°C 34.4°F1.3°C 73% Calm Calm 3.1 mph5.0 kmh 29.93 in1013.5 mb 0.00 in0.0 mm 0.00 in0.0 mm 0.00 in0.0 mm
09:39 AM 42.3°F5.7°C 34.2°F1.2°C 73% 0.7 mph SSW1.1 kmh SSW 3.1 mph5.0 kmh 29.93 in1013.5 mb 0.00 in0.0 mm 0.00 in0.0 mm 0.00 in0.0 mm
09:38 AM 42.3°F5.7°C 34.6°F1.4°C 74% 0.7 mph SSW1.1 kmh SSW 3.1 mph5.0 kmh 29.93 in1013.5 mb 0.00 in0.0 mm 0.00 in0.0 mm 0.00 in0.0 mm
09:37 AM 42.1°F5.6°C 34.4°F1.3°C 74% 0.7 mph SSW1.1 kmh SSW 3.1 mph5.0 kmh 29.93 in1013.5 mb 0.00 in0.0 mm 0.00 in0.0 mm 0.00 in0.0 mm
09:36 AM 41.9°F5.5°C 34.2°F1.2°C 74% 0.7 mph SSW1.1 kmh SSW 3.8 mph6.1 kmh 29.93 in1013.5 mb 0.00 in0.0 mm 0.00 in0.0 mm 0.00 in0.0 mm
09:35 AM 41.7°F5.4°C 33.7°F0.9°C 73% Calm Calm 3.8 mph6.1 kmh 29.93 in1013.5 mb 0.00 in0.0 mm 0.00 in0.0 mm 0.00 in0.0 mm
09:34 AM 41.7°F5.4°C 33.7°F0.9°C 73% Calm Calm 3.8 mph6.1 kmh 29.93 in1013.5 mb 0.00 in0.0 mm 0.00 in0.0 mm 0.00 in0.0 mm
09:33 AM 41.7°F5.4°C 33.7°F0.9°C 73% 1.6 mph S2.6 kmh S 3.8 mph6.1 kmh 29.93 in1013.5 mb 0.00 in0.0 mm 0.00 in0.0 mm 0.00 in0.0 mm
09:32 AM 41.5°F5.3°C 33.5°F0.8°C 73% 1.6 mph S2.6 kmh S 3.8 mph6.1 kmh 29.93 in1013.5 mb 0.00 in0.0 mm 0.00 in0.0 mm 0.00 in0.0 mm
09:31 AM 41.4°F5.2°C 33.4°F0.8°C 73% 1.6 mph S2.6 kmh S 3.8 mph6.1 kmh 29.93 in1013.5 mb 0.00 in0.0 mm 0.00 in0.0 mm 0.00 in0.0 mm
09:30 AM 41.4°F5.2°C 33.7°F0.9°C 74% 1.6 mph S2.6 kmh S 5.4 mph8.7 kmh 29.93 in1013.5 mb 0.00 in0.0 mm 0.00 in0.0 mm 0.00 in0.0 mm
09:29 AM 41.4°F5.2°C 33.4°F0.8°C 73% 1.6 mph S2.6 kmh S 5.4 mph8.7 kmh 29.93 in1013.5 mb 0.00 in0.0 mm 0.00 in0.0 mm 0.00 in0.0 mm
09:28 AM 41.2°F5.1°C 33.2°F0.7°C 73% 2.2 mph S3.5 kmh S 5.4 mph8.7 kmh 29.94 in1013.9 mb 0.00 in0.0 mm 0.00 in0.0 mm 0.00 in0.0 mm
09:27 AM 41.2°F5.1°C 33.2°F0.7°C 73% 2.2 mph SSE3.5 kmh SSE 5.4 mph8.7 kmh 29.93 in1013.5 mb 0.00 in0.0 mm 0.00 in0.0 mm 0.00 in0.0 mm
09:26 AM 41.2°F5.1°C 33.2°F0.7°C 73% 0.7 mph SSE1.1 kmh SSE 5.4 mph8.7 kmh 29.94 in1013.9 mb 0.00 in0.0 mm 0.00 in0.0 mm 0.00 in0.0 mm
09:25 AM 41.2°F5.1°C 33.5°F0.8°C 74% 1.6 mph SSE2.6 kmh SSE 5.4 mph8.7 kmh 29.93 in1013.5 mb 0.00 in0.0 mm 0.00 in0.0 mm 0.00 in0.0 mm
09:24 AM 41.0°F5.0°C 33.4°F0.8°C 74% 1.6 mph SSE2.6 kmh SSE 5.4 mph8.7 kmh 29.94 in1013.9 mb 0.00 in0.0 mm 0.00 in0.0 mm 0.00 in0.0 mm
09:23 AM 41.0°F5.0°C 33.4°F0.8°C 74% 2.2 mph SE3.5 kmh SE 5.4 mph8.7 kmh 29.94 in1013.9 mb 0.00 in0.0 mm 0.00 in0.0 mm 0.00 in0.0 mm
09:22 AM 41.0°F5.0°C 33.4°F0.8°C 74% 2.2 mph SE3.5 kmh SE 5.4 mph8.7 kmh 29.94 in1013.9 mb 0.00 in0.0 mm 0.00 in0.0 mm 0.00 in0.0 mm
09:21 AM 41.0°F5.0°C 33.4°F0.8°C 74% 2.2 mph SE3.5 kmh SE 5.4 mph8.7 kmh 29.93 in1013.5 mb 0.00 in0.0 mm 0.00 in0.0 mm 0.00 in0.0 mm
09:20 AM 40.6°F4.8°C 32.7°F0.4°C 73% 3.1 mph SE5.0 kmh SE 5.4 mph8.7 kmh 29.93 in1013.5 mb 0.00 in0.0 mm 0.00 in0.0 mm 0.00 in0.0 mm
09:19 AM 40.6°F4.8°C 32.7°F0.4°C 73% 3.1 mph SE5.0 kmh SE 5.4 mph8.7 kmh 29.93 in1013.5 mb 0.00 in0.0 mm 0.00 in0.0 mm 0.00 in0.0 mm
09:18 AM 40.6°F4.8°C 32.7°F0.4°C 73% 3.1 mph SE5.0 kmh SE 5.4 mph8.7 kmh 29.93 in1013.5 mb 0.00 in0.0 mm 0.00 in0.0 mm 0.00 in0.0 mm
09:17 AM 40.6°F4.8°C 32.7°F0.4°C 73% 3.1 mph SSE5.0 kmh SSE 5.4 mph8.7 kmh 29.93 in1013.5 mb 0.00 in0.0 mm 0.00 in0.0 mm 0.00 in0.0 mm
09:16 AM 40.6°F4.8°C 32.7°F0.4°C 73% 3.1 mph SSE5.0 kmh SSE 5.4 mph8.7 kmh 29.93 in1013.5 mb 0.00 in0.0 mm 0.00 in0.0 mm 0.00 in0.0 mm
09:15 AM 40.5°F4.7°C 32.2°F0.1°C 72% 1.6 mph S2.6 kmh S 3.8 mph6.1 kmh 29.93 in1013.5 mb 0.00 in0.0 mm 0.00 in0.0 mm 0.00 in0.0 mm
09:14 AM 40.5°F4.7°C 32.2°F0.1°C 72% 1.6 mph S2.6 kmh S 3.8 mph6.1 kmh 29.93 in1013.5 mb 0.00 in0.0 mm 0.00 in0.0 mm 0.00 in0.0 mm
09:13 AM 40.3°F4.6°C 32.3°F0.2°C 73% 1.6 mph S2.6 kmh S 3.8 mph6.1 kmh 29.93 in1013.5 mb 0.00 in0.0 mm 0.00 in0.0 mm 0.00 in0.0 mm
09:12 AM 40.3°F4.6°C 32.3°F0.2°C 73% 1.6 mph S2.6 kmh S 4.5 mph7.2 kmh 29.93 in1013.5 mb 0.00 in0.0 mm 0.00 in0.0 mm 0.00 in0.0 mm
09:11 AM 40.3°F4.6°C 32.3°F0.2°C 73% 1.6 mph S2.6 kmh S 4.5 mph7.2 kmh 29.93 in1013.5 mb 0.00 in0.0 mm 0.00 in0.0 mm 0.00 in0.0 mm
09:10 AM 40.3°F4.6°C 32.0°F0.0°C 72% 1.6 mph S2.6 kmh S 4.5 mph7.2 kmh 29.93 in1013.5 mb 0.00 in0.0 mm 0.00 in0.0 mm 0.00 in0.0 mm
09:09 AM 40.1°F4.5°C 32.2°F0.1°C 73% 1.6 mph SSE2.6 kmh SSE 4.5 mph7.2 kmh 29.93 in1013.5 mb 0.00 in0.0 mm 0.00 in0.0 mm 0.00 in0.0 mm
09:08 AM 40.1°F4.5°C 32.2°F0.1°C 73% 2.2 mph SSE3.5 kmh SSE 4.5 mph7.2 kmh 29.93 in1013.5 mb 0.00 in0.0 mm 0.00 in0.0 mm 0.00 in0.0 mm
09:07 AM 40.1°F4.5°C 31.8°F-0.1°C 72% 0.7 mph SSE1.1 kmh SSE 4.5 mph7.2 kmh 29.93 in1013.5 mb 0.00 in0.0 mm 0.00 in0.0 mm 0.00 in0.0 mm
09:06 AM 39.9°F4.4°C 31.6°F-0.2°C 72% 1.6 mph SSE2.6 kmh SSE 4.5 mph7.2 kmh 29.93 in1013.5 mb 0.00 in0.0 mm 0.00 in0.0 mm 0.00 in0.0 mm
09:05 AM 40.1°F4.5°C 31.8°F-0.1°C 72% 2.2 mph SE3.5 kmh SE 4.5 mph7.2 kmh 29.94 in1013.9 mb 0.00 in0.0 mm 0.00 in0.0 mm 0.00 in0.0 mm
09:04 AM 39.9°F4.4°C 31.3°F-0.4°C 71% 1.6 mph SE2.6 kmh SE 4.5 mph7.2 kmh 29.94 in1013.9 mb 0.00 in0.0 mm 0.00 in0.0 mm 0.00 in0.0 mm
09:03 AM 39.7°F4.3°C 31.1°F-0.5°C 71% 1.6 mph SE2.6 kmh SE 4.5 mph7.2 kmh 29.94 in1013.9 mb 0.00 in0.0 mm 0.00 in0.0 mm 0.00 in0.0 mm
09:02 AM 39.9°F4.4°C 31.3°F-0.4°C 71% 1.6 mph SE2.6 kmh SE 4.5 mph7.2 kmh 29.94 in1013.9 mb 0.00 in0.0 mm 0.00 in0.0 mm 0.00 in0.0 mm
09:01 AM 39.9°F4.4°C 31.3°F-0.4°C 71% 1.6 mph SSE2.6 kmh SSE 3.8 mph6.1 kmh 29.94 in1013.9 mb 0.00 in0.0 mm 0.00 in0.0 mm 0.00 in0.0 mm
09:00 AM 39.9°F4.4°C 31.3°F-0.4°C 71% 1.6 mph S2.6 kmh S 3.8 mph6.1 kmh 29.95 in1014.2 mb 0.00 in0.0 mm 0.00 in0.0 mm 0.00 in0.0 mm
08:59 AM 39.9°F4.4°C 31.3°F-0.4°C 71% Calm Calm 3.8 mph6.1 kmh 29.94 in1013.9 mb 0.00 in0.0 mm 0.00 in0.0 mm 0.00 in0.0 mm
08:58 AM 39.7°F4.3°C 31.1°F-0.5°C 71% Calm Calm 3.8 mph6.1 kmh 29.94 in1013.9 mb 0.00 in0.0 mm 0.00 in0.0 mm 0.00 in0.0 mm
08:57 AM 39.7°F4.3°C 30.8°F-0.7°C 70% 0.7 mph SSW1.1 kmh SSW 3.8 mph6.1 kmh 29.94 in1013.9 mb 0.00 in0.0 mm 0.00 in0.0 mm 0.00 in0.0 mm
08:56 AM 39.7°F4.3°C 30.8°F-0.7°C 70% 1.6 mph SSW2.6 kmh SSW 3.8 mph6.1 kmh 29.94 in1013.9 mb 0.00 in0.0 mm 0.00 in0.0 mm 0.00 in0.0 mm
08:55 AM 39.7°F4.3°C 30.8°F-0.7°C 70% 1.6 mph SW2.6 kmh SW 3.8 mph6.1 kmh 29.94 in1013.9 mb 0.00 in0.0 mm 0.00 in0.0 mm 0.00 in0.0 mm
08:54 AM 39.7°F4.3°C 31.1°F-0.5°C 71% 2.2 mph SW3.5 kmh SW 5.4 mph8.7 kmh 29.95 in1014.2 mb 0.00 in0.0 mm 0.00 in0.0 mm 0.00 in0.0 mm
08:53 AM 39.7°F4.3°C 30.8°F-0.7°C 70% 1.6 mph SW2.6 kmh SW 5.4 mph8.7 kmh 29.94 in1013.9 mb 0.00 in0.0 mm 0.00 in0.0 mm 0.00 in0.0 mm
08:52 AM 39.7°F4.3°C 30.8°F-0.7°C 70% 1.6 mph SW2.6 kmh SW 5.4 mph8.7 kmh 29.94 in1013.9 mb 0.00 in0.0 mm 0.00 in0.0 mm 0.00 in0.0 mm
08:51 AM 39.7°F4.3°C 30.8°F-0.7°C 70% 1.6 mph SW2.6 kmh SW 5.4 mph8.7 kmh 29.95 in1014.2 mb 0.00 in0.0 mm 0.00 in0.0 mm 0.00 in0.0 mm
08:50 AM 39.7°F4.3°C 30.8°F-0.7°C 70% 1.6 mph SW2.6 kmh SW 5.4 mph8.7 kmh 29.94 in1013.9 mb 0.00 in0.0 mm 0.00 in0.0 mm 0.00 in0.0 mm
08:49 AM 39.7°F4.3°C 30.8°F-0.7°C 70% 1.6 mph SW2.6 kmh SW 5.4 mph8.7 kmh 29.95 in1014.2 mb 0.00 in0.0 mm 0.00 in0.0 mm 0.00 in0.0 mm
08:48 AM 39.7°F4.3°C 30.8°F-0.7°C 70% 1.6 mph SW2.6 kmh SW 6.0 mph9.7 kmh 29.94 in1013.9 mb 0.00 in0.0 mm 0.00 in0.0 mm 0.00 in0.0 mm
08:47 AM 39.7°F4.3°C 30.8°F-0.7°C 70% 1.6 mph SW2.6 kmh SW 6.0 mph9.7 kmh 29.94 in1013.9 mb 0.00 in0.0 mm 0.00 in0.0 mm 0.00 in0.0 mm
08:46 AM 39.7°F4.3°C 30.8°F-0.7°C 70% 1.6 mph SSW2.6 kmh SSW 6.0 mph9.7 kmh 29.95 in1014.2 mb 0.00 in0.0 mm 0.00 in0.0 mm 0.00 in0.0 mm
08:45 AM 39.6°F4.2°C 30.6°F-0.8°C 70% 2.2 mph SSW3.5 kmh SSW 6.0 mph9.7 kmh 29.94 in1013.9 mb 0.00 in0.0 mm 0.00 in0.0 mm 0.00 in0.0 mm
08:44 AM 39.6°F4.2°C 30.9°F-0.6°C 71% 3.1 mph SSW5.0 kmh SSW 6.0 mph9.7 kmh 29.94 in1013.9 mb 0.00 in0.0 mm 0.00 in0.0 mm 0.00 in0.0 mm
08:43 AM 39.6°F4.2°C 30.9°F-0.6°C 71% 3.1 mph S5.0 kmh S 6.0 mph9.7 kmh 29.95 in1014.2 mb 0.00 in0.0 mm 0.00 in0.0 mm 0.00 in0.0 mm
08:42 AM 39.6°F4.2°C 31.3°F-0.4°C 72% 3.8 mph S6.1 kmh S 6.0 mph9.7 kmh 29.95 in1014.2 mb 0.00 in0.0 mm 0.00 in0.0 mm 0.00 in0.0 mm
08:41 AM 39.6°F4.2°C 31.3°F-0.4°C 72% 3.1 mph S5.0 kmh S 6.0 mph9.7 kmh 29.95 in1014.2 mb 0.00 in0.0 mm 0.00 in0.0 mm 0.00 in0.0 mm
08:40 AM 39.6°F4.2°C 30.9°F-0.6°C 71% 3.1 mph S5.0 kmh S 6.0 mph9.7 kmh 29.95 in1014.2 mb 0.00 in0.0 mm 0.00 in0.0 mm 0.00 in0.0 mm
08:39 AM 39.6°F4.2°C 30.6°F-0.8°C 70% 3.1 mph S5.0 kmh S 6.0 mph9.7 kmh 29.94 in1013.9 mb 0.00 in0.0 mm 0.00 in0.0 mm 0.00 in0.0 mm
08:38 AM 39.6°F4.2°C 30.6°F-0.8°C 70% 2.2 mph SSE3.5 kmh SSE 6.0 mph9.7 kmh 29.94 in1013.9 mb 0.00 in0.0 mm 0.00 in0.0 mm 0.00 in0.0 mm
08:37 AM 39.4°F4.1°C 30.8°F-0.7°C 71% 2.2 mph SE3.5 kmh SE 6.0 mph9.7 kmh 29.94 in1013.9 mb 0.00 in0.0 mm 0.00 in0.0 mm 0.00 in0.0 mm
08:36 AM 39.4°F4.1°C 30.8°F-0.7°C 71% 2.2 mph SE3.5 kmh SE 6.0 mph9.7 kmh 29.95 in1014.2 mb 0.00 in0.0 mm 0.00 in0.0 mm 0.00 in0.0 mm
08:35 AM 39.2°F4.0°C 30.9°F-0.6°C 72% 1.6 mph SE2.6 kmh SE 6.0 mph9.7 kmh 29.95 in1014.2 mb 0.00 in0.0 mm 0.00 in0.0 mm 0.00 in0.0 mm
08:34 AM 39.0°F3.9°C 31.1°F-0.5°C 73% 3.8 mph SE6.1 kmh SE 6.0 mph9.7 kmh 29.95 in1014.2 mb 0.00 in0.0 mm 0.00 in0.0 mm 0.00 in0.0 mm
08:33 AM 39.0°F3.9°C 31.1°F-0.5°C 73% 1.6 mph SE2.6 kmh SE 4.5 mph7.2 kmh 29.95 in1014.2 mb 0.00 in0.0 mm 0.00 in0.0 mm 0.00 in0.0 mm
08:32 AM 38.7°F3.7°C 30.8°F-0.7°C 73% 1.6 mph SE2.6 kmh SE 4.5 mph7.2 kmh 29.95 in1014.2 mb 0.00 in0.0 mm 0.00 in0.0 mm 0.00 in0.0 mm
08:31 AM 38.7°F3.7°C 30.8°F-0.7°C 73% 1.6 mph ESE2.6 kmh ESE 4.5 mph7.2 kmh 29.95 in1014.2 mb 0.00 in0.0 mm 0.00 in0.0 mm 0.00 in0.0 mm
08:30 AM 38.7°F3.7°C 30.8°F-0.7°C 73% 1.6 mph E2.6 kmh E 5.4 mph8.7 kmh 29.95 in1014.2 mb 0.00 in0.0 mm 0.00 in0.0 mm 0.00 in0.0 mm
08:29 AM 38.7°F3.7°C 31.1°F-0.5°C 74% 0.7 mph E1.1 kmh E 5.4 mph8.7 kmh 29.95 in1014.2 mb 0.00 in0.0 mm 0.00 in0.0 mm 0.00 in0.0 mm
08:28 AM 38.7°F3.7°C 31.1°F-0.5°C 74% 0.7 mph E1.1 kmh E 5.4 mph8.7 kmh 29.95 in1014.2 mb 0.00 in0.0 mm 0.00 in0.0 mm 0.00 in0.0 mm
08:27 AM 38.7°F3.7°C 31.4°F-0.3°C 75% 0.7 mph E1.1 kmh E 5.4 mph8.7 kmh 29.95 in1014.2 mb 0.00 in0.0 mm 0.00 in0.0 mm 0.00 in0.0 mm
08:26 AM 38.7°F3.7°C 31.1°F-0.5°C 74% 0.7 mph E1.1 kmh E 5.4 mph8.7 kmh 29.95 in1014.2 mb 0.00 in0.0 mm 0.00 in0.0 mm 0.00 in0.0 mm
08:25 AM 38.7°F3.7°C 31.1°F-0.5°C 74% 0.7 mph E1.1 kmh E 5.4 mph8.7 kmh 29.95 in1014.2 mb 0.00 in0.0 mm 0.00 in0.0 mm 0.00 in0.0 mm
08:24 AM 38.7°F3.7°C 31.1°F-0.5°C 74% 2.2 mph E3.5 kmh E 5.4 mph8.7 kmh 29.95 in1014.2 mb 0.00 in0.0 mm 0.00 in0.0 mm 0.00 in0.0 mm
08:23 AM 38.7°F3.7°C 31.1°F-0.5°C 74% 3.1 mph ESE5.0 kmh ESE 5.4 mph8.7 kmh 29.95 in1014.2 mb 0.00 in0.0 mm 0.00 in0.0 mm 0.00 in0.0 mm
08:22 AM 38.7°F3.7°C 31.1°F-0.5°C 74% 2.2 mph ESE3.5 kmh ESE 5.4 mph8.7 kmh 29.95 in1014.2 mb 0.00 in0.0 mm 0.00 in0.0 mm 0.00 in0.0 mm
08:21 AM 38.7°F3.7°C 31.1°F-0.5°C 74% 2.2 mph SE3.5 kmh SE 5.4 mph8.7 kmh 29.95 in1014.2 mb 0.00 in0.0 mm 0.00 in0.0 mm 0.00 in0.0 mm
08:20 AM 38.7°F3.7°C 31.4°F-0.3°C 75% 3.1 mph SE5.0 kmh SE 5.4 mph8.7 kmh 29.95 in1014.2 mb 0.00 in0.0 mm 0.00 in0.0 mm 0.00 in0.0 mm
08:19 AM 38.7°F3.7°C 31.1°F-0.5°C 74% 2.2 mph SE3.5 kmh SE 4.5 mph7.2 kmh 29.94 in1013.9 mb 0.00 in0.0 mm 0.00 in0.0 mm 0.00 in0.0 mm
08:18 AM 38.7°F3.7°C 31.1°F-0.5°C 74% 1.6 mph SE2.6 kmh SE 4.5 mph7.2 kmh 29.95 in1014.2 mb 0.00 in0.0 mm 0.00 in0.0 mm 0.00 in0.0 mm
08:17 AM 38.8°F3.8°C 30.9°F-0.6°C 73% 1.6 mph SE2.6 kmh SE 4.5 mph7.2 kmh 29.95 in1014.2 mb 0.00 in0.0 mm 0.00 in0.0 mm 0.00 in0.0 mm
08:16 AM 38.8°F3.8°C 30.9°F-0.6°C 73% 1.6 mph SE2.6 kmh SE 4.5 mph7.2 kmh 29.95 in1014.2 mb 0.00 in0.0 mm 0.00 in0.0 mm 0.00 in0.0 mm
08:15 AM 38.8°F3.8°C 30.6°F-0.8°C 72% 3.1 mph SE5.0 kmh SE 4.5 mph7.2 kmh 29.95 in1014.2 mb 0.00 in0.0 mm 0.00 in0.0 mm 0.00 in0.0 mm
08:14 AM 38.8°F3.8°C 30.6°F-0.8°C 72% 0.7 mph SE1.1 kmh SE 4.5 mph7.2 kmh 29.95 in1014.2 mb 0.00 in0.0 mm 0.00 in0.0 mm 0.00 in0.0 mm
08:13 AM 39.0°F3.9°C 30.4°F-0.9°C 71% 0.7 mph SE1.1 kmh SE 4.5 mph7.2 kmh 29.95 in1014.2 mb 0.00 in0.0 mm 0.00 in0.0 mm 0.00 in0.0 mm
08:12 AM 39.0°F3.9°C 30.8°F-0.7°C 72% 1.6 mph SE2.6 kmh SE 4.5 mph7.2 kmh 29.95 in1014.2 mb 0.00 in0.0 mm 0.00 in0.0 mm 0.00 in0.0 mm
08:11 AM 39.0°F3.9°C 30.8°F-0.7°C 72% 2.2 mph SE3.5 kmh SE 4.5 mph7.2 kmh 29.95 in1014.2 mb 0.00 in0.0 mm 0.00 in0.0 mm 0.00 in0.0 mm
08:10 AM 39.0°F3.9°C 30.4°F-0.9°C 71% 2.2 mph SE3.5 kmh SE 4.5 mph7.2 kmh 29.95 in1014.2 mb 0.00 in0.0 mm 0.00 in0.0 mm 0.00 in0.0 mm
08:09 AM 39.0°F3.9°C 30.4°F-0.9°C 71% 1.6 mph SE2.6 kmh SE 4.5 mph7.2 kmh 29.95 in1014.2 mb 0.00 in0.0 mm 0.00 in0.0 mm 0.00 in0.0 mm
08:08 AM 39.2°F4.0°C 30.6°F-0.8°C 71% 1.6 mph SE2.6 kmh SE 4.5 mph7.2 kmh 29.95 in1014.2 mb 0.00 in0.0 mm 0.00 in0.0 mm 0.00 in0.0 mm
08:07 AM 39.2°F4.0°C 30.3°F-0.9°C 70% 1.6 mph SE2.6 kmh SE 4.5 mph7.2 kmh 29.95 in1014.2 mb 0.00 in0.0 mm 0.00 in0.0 mm 0.00 in0.0 mm
08:06 AM 39.2°F4.0°C 30.3°F-0.9°C 70% 1.6 mph SE2.6 kmh SE 4.5 mph7.2 kmh 29.95 in1014.2 mb 0.00 in0.0 mm 0.00 in0.0 mm 0.00 in0.0 mm
08:05 AM 39.4°F4.1°C 30.8°F-0.7°C 71% Calm Calm 3.8 mph6.1 kmh 29.95 in1014.2 mb 0.00 in0.0 mm 0.00 in0.0 mm 0.00 in0.0 mm
08:04 AM 39.2°F4.0°C 30.3°F-0.9°C 70% 0.7 mph SE1.1 kmh SE 3.8 mph6.1 kmh 29.95 in1014.2 mb 0.00 in0.0 mm 0.00 in0.0 mm 0.00 in0.0 mm
08:03 AM 39.4°F4.1°C 30.1°F-1.1°C 69% 0.7 mph ESE1.1 kmh ESE 4.5 mph7.2 kmh 29.95 in1014.2 mb 0.00 in0.0 mm 0.00 in0.0 mm 0.00 in0.0 mm
08:02 AM 39.4°F4.1°C 29.7°F-1.3°C 68% 0.7 mph ESE1.1 kmh ESE 4.5 mph7.2 kmh 29.94 in1013.9 mb 0.00 in0.0 mm 0.00 in0.0 mm 0.00 in0.0 mm
08:01 AM 39.4°F4.1°C 29.7°F-1.3°C 68% 0.7 mph ESE1.1 kmh ESE 4.5 mph7.2 kmh 29.94 in1013.9 mb 0.00 in0.0 mm 0.00 in0.0 mm 0.00 in0.0 mm
08:00 AM 39.4°F4.1°C 29.7°F-1.3°C 68% 0.7 mph SE1.1 kmh SE 4.5 mph7.2 kmh 29.94 in1013.9 mb 0.00 in0.0 mm 0.00 in0.0 mm 0.00 in0.0 mm
07:59 AM 39.4°F4.1°C 29.7°F-1.3°C 68% 1.6 mph SE2.6 kmh SE 4.5 mph7.2 kmh 29.95 in1014.2 mb 0.00 in0.0 mm 0.00 in0.0 mm 0.00 in0.0 mm
07:58 AM 39.4°F4.1°C 30.1°F-1.1°C 69% 2.2 mph SE3.5 kmh SE 4.5 mph7.2 kmh 29.95 in1014.2 mb 0.00 in0.0 mm 0.00 in0.0 mm 0.00 in0.0 mm
07:57 AM 39.4°F4.1°C 30.1°F-1.1°C 69% 1.6 mph SE2.6 kmh SE 4.5 mph7.2 kmh 29.94 in1013.9 mb 0.00 in0.0 mm 0.00 in0.0 mm 0.00 in0.0 mm
07:56 AM 39.4°F4.1°C 30.1°F-1.1°C 69% 1.6 mph SSE2.6 kmh SSE 4.5 mph7.2 kmh 29.94 in1013.9 mb 0.00 in0.0 mm 0.00 in0.0 mm 0.00 in0.0 mm
07:55 AM 39.2°F4.0°C 29.9°F-1.2°C 69% 1.6 mph SSE2.6 kmh SSE 4.5 mph7.2 kmh 29.95 in1014.2 mb 0.00 in0.0 mm 0.00 in0.0 mm 0.00 in0.0 mm
07:54 AM 39.2°F4.0°C 29.9°F-1.2°C 69% 1.6 mph SSE2.6 kmh SSE 4.5 mph7.2 kmh 29.95 in1014.2 mb 0.00 in0.0 mm 0.00 in0.0 mm 0.00 in0.0 mm
07:53 AM 39.2°F4.0°C 29.9°F-1.2°C 69% 1.6 mph S2.6 kmh S 4.5 mph7.2 kmh 29.94 in1013.9 mb 0.00 in0.0 mm 0.00 in0.0 mm 0.00 in0.0 mm
07:52 AM 39.2°F4.0°C 29.9°F-1.2°C 69% 0.7 mph S1.1 kmh S 3.8 mph6.1 kmh 29.95 in1014.2 mb 0.00 in0.0 mm 0.00 in0.0 mm 0.00 in0.0 mm
07:51 AM 39.2°F4.0°C 29.9°F-1.2°C 69% 0.7 mph SSE1.1 kmh SSE 3.8 mph6.1 kmh 29.94 in1013.9 mb 0.00 in0.0 mm 0.00 in0.0 mm 0.00 in0.0 mm
07:50 AM 39.4°F4.1°C 30.1°F-1.1°C 69% 1.6 mph SSE2.6 kmh SSE 3.8 mph6.1 kmh 29.94 in1013.9 mb 0.00 in0.0 mm 0.00 in0.0 mm 0.00 in0.0 mm
07:49 AM 39.2°F4.0°C 30.3°F-0.9°C 70% 1.6 mph SSE2.6 kmh SSE 3.8 mph6.1 kmh 29.94 in1013.9 mb 0.00 in0.0 mm 0.00 in0.0 mm 0.00 in0.0 mm
07:48 AM 39.2°F4.0°C 30.3°F-0.9°C 70% 1.6 mph SE2.6 kmh SE 3.8 mph6.1 kmh 29.94 in1013.9 mb 0.00 in0.0 mm 0.00 in0.0 mm 0.00 in0.0 mm
07:47 AM 39.2°F4.0°C 29.9°F-1.2°C 69% 2.2 mph SE3.5 kmh SE 3.8 mph6.1 kmh 29.94 in1013.9 mb 0.00 in0.0 mm 0.00 in0.0 mm 0.00 in0.0 mm
07:46 AM 39.2°F4.0°C 29.9°F-1.2°C 69% 1.6 mph SE2.6 kmh SE 3.8 mph6.1 kmh 29.94 in1013.9 mb 0.00 in0.0 mm 0.00 in0.0 mm 0.00 in0.0 mm
07:45 AM 39.2°F4.0°C 29.5°F-1.4°C 68% Calm Calm 3.1 mph5.0 kmh 29.95 in1014.2 mb 0.00 in0.0 mm 0.00 in0.0 mm 0.00 in0.0 mm
07:44 AM 39.2°F4.0°C 29.5°F-1.4°C 68% Calm Calm 3.1 mph5.0 kmh 29.94 in1013.9 mb 0.00 in0.0 mm 0.00 in0.0 mm 0.00 in0.0 mm
07:43 AM 39.2°F4.0°C 29.2°F-1.6°C 67% Calm Calm 3.1 mph5.0 kmh 29.94 in1013.9 mb 0.00 in0.0 mm 0.00 in0.0 mm 0.00 in0.0 mm
07:42 AM 39.2°F4.0°C 28.8°F-1.8°C 66% 0.7 mph SE1.1 kmh SE 3.1 mph5.0 kmh 29.94 in1013.9 mb 0.00 in0.0 mm 0.00 in0.0 mm 0.00 in0.0 mm
07:41 AM 39.2°F4.0°C 28.8°F-1.8°C 66% 0.7 mph SE1.1 kmh SE 3.1 mph5.0 kmh 29.94 in1013.9 mb 0.00 in0.0 mm 0.00 in0.0 mm 0.00 in0.0 mm
07:40 AM 39.2°F4.0°C 29.2°F-1.6°C 67% 0.7 mph SE1.1 kmh SE 3.1 mph5.0 kmh 29.95 in1014.2 mb 0.00 in0.0 mm 0.00 in0.0 mm 0.00 in0.0 mm
07:39 AM 39.2°F4.0°C 29.5°F-1.4°C 68% 1.6 mph SE2.6 kmh SE 3.1 mph5.0 kmh 29.94 in1013.9 mb 0.00 in0.0 mm 0.00 in0.0 mm 0.00 in0.0 mm
07:38 AM 39.2°F4.0°C 29.5°F-1.4°C 68% Calm Calm 3.1 mph5.0 kmh 29.95 in1014.2 mb 0.00 in0.0 mm 0.00 in0.0 mm 0.00 in0.0 mm
07:37 AM 39.4°F4.1°C 29.7°F-1.3°C 68% 0.7 mph SE1.1 kmh SE 3.1 mph5.0 kmh 29.95 in1014.2 mb 0.00 in0.0 mm 0.00 in0.0 mm 0.00 in0.0 mm
07:36 AM 39.2°F4.0°C 29.5°F-1.4°C 68% 1.6 mph SSE2.6 kmh SSE 3.1 mph5.0 kmh 29.95 in1014.2 mb 0.00 in0.0 mm 0.00 in0.0 mm 0.00 in0.0 mm
07:35 AM 39.4°F4.1°C 29.4°F-1.4°C 67% 1.6 mph SSE2.6 kmh SSE 2.2 mph3.5 kmh 29.94 in1013.9 mb 0.00 in0.0 mm 0.00 in0.0 mm 0.00 in0.0 mm
07:34 AM 39.4°F4.1°C 29.0°F-1.7°C 66% Calm Calm 2.2 mph3.5 kmh 29.94 in1013.9 mb 0.00 in0.0 mm 0.00 in0.0 mm 0.00 in0.0 mm
07:33 AM 39.4°F4.1°C 29.0°F-1.7°C 66% 0.7 mph SE1.1 kmh SE 3.1 mph5.0 kmh 29.94 in1013.9 mb 0.00 in0.0 mm 0.00 in0.0 mm 0.00 in0.0 mm
07:32 AM 39.4°F4.1°C 29.4°F-1.4°C 67% 0.7 mph ESE1.1 kmh ESE 6.0 mph9.7 kmh 29.94 in1013.9 mb 0.00 in0.0 mm 0.00 in0.0 mm 0.00 in0.0 mm
07:31 AM 39.6°F4.2°C 29.5°F-1.4°C 67% 0.7 mph E1.1 kmh E 6.0 mph9.7 kmh 29.94 in1013.9 mb 0.00 in0.0 mm 0.00 in0.0 mm 0.00 in0.0 mm
07:30 AM 39.6°F4.2°C 29.2°F-1.6°C 66% 0.7 mph E1.1 kmh E 6.0 mph9.7 kmh 29.94 in1013.9 mb 0.00 in0.0 mm 0.00 in0.0 mm 0.00 in0.0 mm
07:29 AM 39.6°F4.2°C 28.8°F-1.8°C 65% 0.7 mph E1.1 kmh E 6.0 mph9.7 kmh 29.94 in1013.9 mb 0.00 in0.0 mm 0.00 in0.0 mm 0.00 in0.0 mm
07:28 AM 39.7°F4.3°C 29.0°F-1.7°C 65% Calm Calm 6.0 mph9.7 kmh 29.93 in1013.5 mb 0.00 in0.0 mm 0.00 in0.0 mm 0.00 in0.0 mm
07:27 AM 39.6°F4.2°C 28.8°F-1.8°C 65% 0.7 mph ENE1.1 kmh ENE 6.0 mph9.7 kmh 29.93 in1013.5 mb 0.00 in0.0 mm 0.00 in0.0 mm 0.00 in0.0 mm
07:26 AM 39.7°F4.3°C 29.0°F-1.7°C 65% 1.6 mph ENE2.6 kmh ENE 6.0 mph9.7 kmh 29.94 in1013.9 mb 0.00 in0.0 mm 0.00 in0.0 mm 0.00 in0.0 mm
07:25 AM 39.7°F4.3°C 28.6°F-1.9°C 64% 1.6 mph ENE2.6 kmh ENE 6.0 mph9.7 kmh 29.94 in1013.9 mb 0.00 in0.0 mm 0.00 in0.0 mm 0.00 in0.0 mm
07:24 AM 39.6°F4.2°C 28.0°F-2.2°C 63% 1.6 mph ENE2.6 kmh ENE 6.0 mph9.7 kmh 29.94 in1013.9 mb 0.00 in0.0 mm 0.00 in0.0 mm 0.00 in0.0 mm
07:23 AM 39.6°F4.2°C 28.0°F-2.2°C 63% 3.1 mph E5.0 kmh E 6.0 mph9.7 kmh 29.93 in1013.5 mb 0.00 in0.0 mm 0.00 in0.0 mm 0.00 in0.0 mm
07:22 AM 39.6°F4.2°C 28.4°F-2.0°C 64% 2.2 mph ESE3.5 kmh ESE 6.0 mph9.7 kmh 29.94 in1013.9 mb 0.00 in0.0 mm 0.00 in0.0 mm 0.00 in0.0 mm
07:21 AM 39.6°F4.2°C 28.4°F-2.0°C 64% 0.7 mph SE1.1 kmh SE 3.8 mph6.1 kmh 29.93 in1013.5 mb 0.00 in0.0 mm 0.00 in0.0 mm 0.00 in0.0 mm
07:20 AM 39.4°F4.1°C 27.9°F-2.3°C 63% 2.2 mph ESE3.5 kmh ESE 3.8 mph6.1 kmh 29.94 in1013.9 mb 0.00 in0.0 mm 0.00 in0.0 mm 0.00 in0.0 mm
07:19 AM 39.4°F4.1°C 28.2°F-2.1°C 64% 1.6 mph ESE2.6 kmh ESE 3.1 mph5.0 kmh 29.93 in1013.5 mb 0.00 in0.0 mm 0.00 in0.0 mm 0.00 in0.0 mm
07:18 AM 39.4°F4.1°C 28.2°F-2.1°C 64% 0.7 mph ESE1.1 kmh ESE 3.1 mph5.0 kmh 29.93 in1013.5 mb 0.00 in0.0 mm 0.00 in0.0 mm 0.00 in0.0 mm
07:17 AM 39.4°F4.1°C 28.2°F-2.1°C 64% 1.6 mph ESE2.6 kmh ESE 3.1 mph5.0 kmh 29.93 in1013.5 mb 0.00 in0.0 mm 0.00 in0.0 mm 0.00 in0.0 mm
07:16 AM 39.0°F3.9°C 28.3°F-2.1°C 65% 0.7 mph ESE1.1 kmh ESE 2.2 mph3.5 kmh 29.93 in1013.5 mb 0.00 in0.0 mm 0.00 in0.0 mm 0.00 in0.0 mm
07:15 AM 39.0°F3.9°C 28.3°F-2.1°C 65% 0.7 mph ESE1.1 kmh ESE 2.2 mph3.5 kmh 29.93 in1013.5 mb 0.00 in0.0 mm 0.00 in0.0 mm 0.00 in0.0 mm
07:14 AM 39.0°F3.9°C 28.3°F-2.1°C 65% 0.7 mph E1.1 kmh E 2.2 mph3.5 kmh 29.93 in1013.5 mb 0.00 in0.0 mm 0.00 in0.0 mm 0.00 in0.0 mm
07:13 AM 39.0°F3.9°C 28.3°F-2.1°C 65% 0.7 mph E1.1 kmh E 2.2 mph3.5 kmh 29.93 in1013.5 mb 0.00 in0.0 mm 0.00 in0.0 mm 0.00 in0.0 mm
07:12 AM 39.0°F3.9°C 28.3°F-2.1°C 65% 0.7 mph E1.1 kmh E 2.2 mph3.5 kmh 29.93 in1013.5 mb 0.00 in0.0 mm 0.00 in0.0 mm 0.00 in0.0 mm
07:11 AM 38.8°F3.8°C 29.6°F-1.3°C 69% 0.7 mph E1.1 kmh E 1.6 mph2.6 kmh 29.93 in1013.5 mb 0.00 in0.0 mm 0.00 in0.0 mm 0.00 in0.0 mm
07:10 AM 38.8°F3.8°C 29.6°F-1.3°C 69% 0.7 mph E1.1 kmh E 1.6 mph2.6 kmh 29.93 in1013.5 mb 0.00 in0.0 mm 0.00 in0.0 mm 0.00 in0.0 mm
07:09 AM 38.8°F3.8°C 29.6°F-1.3°C 69% 0.7 mph E1.1 kmh E 1.6 mph2.6 kmh 29.93 in1013.5 mb 0.00 in0.0 mm 0.00 in0.0 mm 0.00 in0.0 mm
07:08 AM 38.8°F3.8°C 29.6°F-1.3°C 69% 0.7 mph E1.1 kmh E 2.2 mph3.5 kmh 29.94 in1013.9 mb 0.00 in0.0 mm 0.00 in0.0 mm 0.00 in0.0 mm
07:07 AM 38.8°F3.8°C 29.6°F-1.3°C 69% 0.7 mph E1.1 kmh E 2.2 mph3.5 kmh 29.94 in1013.9 mb 0.00 in0.0 mm 0.00 in0.0 mm 0.00 in0.0 mm
07:06 AM 38.8°F3.8°C 29.6°F-1.3°C 69% 0.7 mph E1.1 kmh E 2.2 mph3.5 kmh 29.93 in1013.5 mb 0.00 in0.0 mm 0.00 in0.0 mm 0.00 in0.0 mm
07:05 AM 38.8°F3.8°C 29.6°F-1.3°C 69% 0.7 mph E1.1 kmh E 2.2 mph3.5 kmh 29.93 in1013.5 mb 0.00 in0.0 mm 0.00 in0.0 mm 0.00 in0.0 mm
07:04 AM 38.8°F3.8°C 29.6°F-1.3°C 69% 0.7 mph E1.1 kmh E 2.2 mph3.5 kmh 29.93 in1013.5 mb 0.00 in0.0 mm 0.00 in0.0 mm 0.00 in0.0 mm
07:03 AM 38.8°F3.8°C 29.6°F-1.3°C 69% 0.7 mph E1.1 kmh E 2.2 mph3.5 kmh 29.93 in1013.5 mb 0.00 in0.0 mm 0.00 in0.0 mm 0.00 in0.0 mm
07:02 AM 38.8°F3.8°C 29.6°F-1.3°C 69% 0.7 mph E1.1 kmh E 2.2 mph3.5 kmh 29.93 in1013.5 mb 0.00 in0.0 mm 0.00 in0.0 mm 0.00 in0.0 mm
07:01 AM 38.8°F3.8°C 29.6°F-1.3°C 69% 0.7 mph E1.1 kmh E 2.2 mph3.5 kmh 29.94 in1013.9 mb 0.00 in0.0 mm 0.00 in0.0 mm 0.00 in0.0 mm
07:00 AM 38.8°F3.8°C 29.6°F-1.3°C 69% 0.7 mph E1.1 kmh E 2.2 mph3.5 kmh 29.94 in1013.9 mb 0.00 in0.0 mm 0.00 in0.0 mm 0.00 in0.0 mm
06:59 AM 38.8°F3.8°C 29.2°F-1.6°C 68% 0.7 mph E1.1 kmh E 3.1 mph5.0 kmh 29.94 in1013.9 mb 0.00 in0.0 mm 0.00 in0.0 mm 0.00 in0.0 mm
06:58 AM 39.2°F4.0°C 29.2°F-1.6°C 67% 1.6 mph E2.6 kmh E 3.1 mph5.0 kmh 29.93 in1013.5 mb 0.00 in0.0 mm 0.00 in0.0 mm 0.00 in0.0 mm
06:57 AM 39.2°F4.0°C 29.2°F-1.6°C 67% 1.6 mph E2.6 kmh E 3.1 mph5.0 kmh 29.93 in1013.5 mb 0.00 in0.0 mm 0.00 in0.0 mm 0.00 in0.0 mm
06:56 AM 39.2°F4.0°C 29.2°F-1.6°C 67% 1.6 mph E2.6 kmh E 3.1 mph5.0 kmh 29.94 in1013.9 mb 0.00 in0.0 mm 0.00 in0.0 mm 0.00 in0.0 mm
06:55 AM 39.2°F4.0°C 29.2°F-1.6°C 67% 1.6 mph E2.6 kmh E 3.1 mph5.0 kmh 29.93 in1013.5 mb 0.00 in0.0 mm 0.00 in0.0 mm 0.00 in0.0 mm
06:54 AM 39.2°F4.0°C 29.2°F-1.6°C 67% 1.6 mph E2.6 kmh E 3.1 mph5.0 kmh 29.93 in1013.5 mb 0.00 in0.0 mm 0.00 in0.0 mm 0.00 in0.0 mm
06:53 AM 39.2°F4.0°C 29.2°F-1.6°C 67% 1.6 mph E2.6 kmh E 3.1 mph5.0 kmh 29.93 in1013.5 mb 0.00 in0.0 mm 0.00 in0.0 mm 0.00 in0.0 mm
06:52 AM 39.2°F4.0°C 28.8°F-1.8°C 66% 1.6 mph E2.6 kmh E 3.1 mph5.0 kmh 29.93 in1013.5 mb 0.00 in0.0 mm 0.00 in0.0 mm 0.00 in0.0 mm
06:51 AM 39.2°F4.0°C 28.4°F-2.0°C 65% 0.7 mph E1.1 kmh E 3.1 mph5.0 kmh 29.93 in1013.5 mb 0.00 in0.0 mm 0.00 in0.0 mm 0.00 in0.0 mm
06:50 AM 39.2°F4.0°C 28.4°F-2.0°C 65% 0.7 mph E1.1 kmh E 3.1 mph5.0 kmh 29.93 in1013.5 mb 0.00 in0.0 mm 0.00 in0.0 mm 0.00 in0.0 mm
06:49 AM 39.2°F4.0°C 28.4°F-2.0°C 65% 1.6 mph E2.6 kmh E 3.1 mph5.0 kmh 29.94 in1013.9 mb 0.00 in0.0 mm 0.00 in0.0 mm 0.00 in0.0 mm
06:48 AM 39.4°F4.1°C 28.6°F-1.9°C 65% 0.7 mph E1.1 kmh E 3.1 mph5.0 kmh 29.94 in1013.9 mb 0.00 in0.0 mm 0.00 in0.0 mm 0.00 in0.0 mm
06:47 AM 39.4°F4.1°C 28.2°F-2.1°C 64% 0.7 mph E1.1 kmh E 3.1 mph5.0 kmh 29.93 in1013.5 mb 0.00 in0.0 mm 0.00 in0.0 mm 0.00 in0.0 mm
06:46 AM 39.6°F4.2°C 28.4°F-2.0°C 64% 0.7 mph E1.1 kmh E 3.1 mph5.0 kmh 29.93 in1013.5 mb 0.00 in0.0 mm 0.00 in0.0 mm 0.00 in0.0 mm
06:45 AM 39.6°F4.2°C 28.4°F-2.0°C 64% 0.7 mph E1.1 kmh E 3.1 mph5.0 kmh 29.93 in1013.5 mb 0.00 in0.0 mm 0.00 in0.0 mm 0.00 in0.0 mm
06:44 AM 39.6°F4.2°C 27.6°F-2.4°C 62% 0.7 mph E1.1 kmh E 3.1 mph5.0 kmh 29.93 in1013.5 mb 0.00 in0.0 mm 0.00 in0.0 mm 0.00 in0.0 mm
06:43 AM 39.7°F4.3°C 27.8°F-2.3°C 62% 1.6 mph SE2.6 kmh SE 3.1 mph5.0 kmh 29.93 in1013.5 mb 0.00 in0.0 mm 0.00 in0.0 mm 0.00 in0.0 mm
06:42 AM 39.7°F4.3°C 27.8°F-2.3°C 62% 1.6 mph SE2.6 kmh SE 3.1 mph5.0 kmh 29.93 in1013.5 mb 0.00 in0.0 mm 0.00 in0.0 mm 0.00 in0.0 mm
06:41 AM 39.7°F4.3°C 27.8°F-2.3°C 62% 1.6 mph SE2.6 kmh SE 3.1 mph5.0 kmh 29.93 in1013.5 mb 0.00 in0.0 mm 0.00 in0.0 mm 0.00 in0.0 mm
06:40 AM 39.7°F4.3°C 27.4°F-2.6°C 61% 1.6 mph SE2.6 kmh SE 3.1 mph5.0 kmh 29.93 in1013.5 mb 0.00 in0.0 mm 0.00 in0.0 mm 0.00 in0.0 mm
06:39 AM 39.9°F4.4°C 27.2°F-2.7°C 60% 0.7 mph SSE1.1 kmh SSE 2.2 mph3.5 kmh 29.93 in1013.5 mb 0.00 in0.0 mm 0.00 in0.0 mm 0.00 in0.0 mm
06:38 AM 39.9°F4.4°C 26.8°F-2.9°C 59% 0.7 mph SSE1.1 kmh SSE 2.2 mph3.5 kmh 29.94 in1013.9 mb 0.00 in0.0 mm 0.00 in0.0 mm 0.00 in0.0 mm
06:37 AM 39.9°F4.4°C 26.8°F-2.9°C 59% 0.7 mph SSE1.1 kmh SSE 3.1 mph5.0 kmh 29.93 in1013.5 mb 0.00 in0.0 mm 0.00 in0.0 mm 0.00 in0.0 mm
06:36 AM 39.9°F4.4°C 26.8°F-2.9°C 59% Calm Calm 3.1 mph5.0 kmh 29.94 in1013.9 mb 0.00 in0.0 mm 0.00 in0.0 mm 0.00 in0.0 mm
06:35 AM 39.9°F4.4°C 26.4°F-3.1°C 58% Calm Calm 3.1 mph5.0 kmh 29.93 in1013.5 mb 0.00 in0.0 mm 0.00 in0.0 mm 0.00 in0.0 mm
06:34 AM 40.1°F4.5°C 26.5°F-3.1°C 58% 0.7 mph SSE1.1 kmh SSE 3.1 mph5.0 kmh 29.94 in1013.9 mb 0.00 in0.0 mm 0.00 in0.0 mm 0.00 in0.0 mm
06:33 AM 40.1°F4.5°C 26.1°F-3.3°C 57% 0.7 mph SE1.1 kmh SE 3.1 mph5.0 kmh 29.94 in1013.9 mb 0.00 in0.0 mm 0.00 in0.0 mm 0.00 in0.0 mm
06:32 AM 40.1°F4.5°C 26.1°F-3.3°C 57% 0.7 mph SE1.1 kmh SE 3.8 mph6.1 kmh 29.93 in1013.5 mb 0.00 in0.0 mm 0.00 in0.0 mm 0.00 in0.0 mm
06:31 AM 40.1°F4.5°C 26.1°F-3.3°C 57% 0.7 mph SE1.1 kmh SE 3.8 mph6.1 kmh 29.94 in1013.9 mb 0.00 in0.0 mm 0.00 in0.0 mm 0.00 in0.0 mm
06:30 AM 40.1°F4.5°C 26.1°F-3.3°C 57% 0.7 mph SE1.1 kmh SE 3.8 mph6.1 kmh 29.94 in1013.9 mb 0.00 in0.0 mm 0.00 in0.0 mm 0.00 in0.0 mm
06:29 AM 40.1°F4.5°C 26.1°F-3.3°C 57% 0.7 mph SE1.1 kmh SE 3.8 mph6.1 kmh 29.94 in1013.9 mb 0.00 in0.0 mm 0.00 in0.0 mm 0.00 in0.0 mm
06:28 AM 40.1°F4.5°C 26.1°F-3.3°C 57% 0.7 mph SE1.1 kmh SE 3.8 mph6.1 kmh 29.93 in1013.5 mb 0.00 in0.0 mm 0.00 in0.0 mm 0.00 in0.0 mm
06:27 AM 40.3°F4.6°C 25.8°F-3.4°C 56% 0.7 mph SE1.1 kmh SE 3.8 mph6.1 kmh 29.94 in1013.9 mb 0.00 in0.0 mm 0.00 in0.0 mm 0.00 in0.0 mm
06:26 AM 40.3°F4.6°C 25.8°F-3.4°C 56% 1.6 mph SE2.6 kmh SE 3.8 mph6.1 kmh 29.94 in1013.9 mb 0.00 in0.0 mm 0.00 in0.0 mm 0.00 in0.0 mm
06:25 AM 40.3°F4.6°C 25.8°F-3.4°C 56% 0.7 mph SE1.1 kmh SE 3.8 mph6.1 kmh 29.94 in1013.9 mb 0.00 in0.0 mm 0.00 in0.0 mm 0.00 in0.0 mm
06:24 AM 40.3°F4.6°C 25.4°F-3.7°C 55% 0.7 mph SE1.1 kmh SE 3.8 mph6.1 kmh 29.94 in1013.9 mb 0.00 in0.0 mm 0.00 in0.0 mm 0.00 in0.0 mm
06:23 AM 40.3°F4.6°C 25.4°F-3.7°C 55% 2.2 mph SE3.5 kmh SE 3.8 mph6.1 kmh 29.94 in1013.9 mb 0.00 in0.0 mm 0.00 in0.0 mm 0.00 in0.0 mm
06:22 AM 40.3°F4.6°C 25.4°F-3.7°C 55% 2.2 mph SE3.5 kmh SE 3.8 mph6.1 kmh 29.93 in1013.5 mb 0.00 in0.0 mm 0.00 in0.0 mm 0.00 in0.0 mm
06:21 AM 40.3°F4.6°C 25.4°F-3.7°C 55% 0.7 mph SE1.1 kmh SE 2.2 mph3.5 kmh 29.93 in1013.5 mb 0.00 in0.0 mm 0.00 in0.0 mm 0.00 in0.0 mm
06:20 AM 40.3°F4.6°C 25.8°F-3.4°C 56% Calm Calm 2.2 mph3.5 kmh 29.93 in1013.5 mb 0.00 in0.0 mm 0.00 in0.0 mm 0.00 in0.0 mm
06:19 AM 40.3°F4.6°C 25.8°F-3.4°C 56% Calm Calm 2.2 mph3.5 kmh 29.93 in1013.5 mb 0.00 in0.0 mm 0.00 in0.0 mm 0.00 in0.0 mm
06:18 AM 40.3°F4.6°C 25.8°F-3.4°C 56% Calm Calm 2.2 mph3.5 kmh 29.93 in1013.5 mb 0.00 in0.0 mm 0.00 in0.0 mm 0.00 in0.0 mm
06:17 AM 40.3°F4.6°C 25.8°F-3.4°C 56% Calm Calm 2.2 mph3.5 kmh 29.94 in1013.9 mb 0.00 in0.0 mm 0.00 in0.0 mm 0.00 in0.0 mm
06:16 AM 40.3°F4.6°C 25.8°F-3.4°C 56% Calm Calm 2.2 mph3.5 kmh 29.94 in1013.9 mb 0.00 in0.0 mm 0.00 in0.0 mm 0.00 in0.0 mm
06:15 AM 40.3°F4.6°C 25.8°F-3.4°C 56% Calm Calm 2.2 mph3.5 kmh 29.94 in1013.9 mb 0.00 in0.0 mm 0.00 in0.0 mm 0.00 in0.0 mm
06:14 AM 40.3°F4.6°C 25.8°F-3.4°C 56% Calm Calm 2.2 mph3.5 kmh 29.94 in1013.9 mb 0.00 in0.0 mm 0.00 in0.0 mm 0.00 in0.0 mm
06:13 AM 40.5°F4.7°C 26.0°F-3.3°C 56% Calm Calm 2.2 mph3.5 kmh 29.94 in1013.9 mb 0.00 in0.0 mm 0.00 in0.0 mm 0.00 in0.0 mm
06:12 AM 40.5°F4.7°C 26.0°F-3.3°C 56% 0.7 mph S1.1 kmh S 3.1 mph5.0 kmh 29.94 in1013.9 mb 0.00 in0.0 mm 0.00 in0.0 mm 0.00 in0.0 mm
06:11 AM 40.6°F4.8°C 26.2°F-3.2°C 56% 1.6 mph S2.6 kmh S 3.1 mph5.0 kmh 29.94 in1013.9 mb 0.00 in0.0 mm 0.00 in0.0 mm 0.00 in0.0 mm
06:10 AM 40.6°F4.8°C 25.8°F-3.4°C 55% Calm Calm 3.1 mph5.0 kmh 29.94 in1013.9 mb 0.00 in0.0 mm 0.00 in0.0 mm 0.00 in0.0 mm
06:09 AM 40.6°F4.8°C 25.8°F-3.4°C 55% Calm Calm 3.1 mph5.0 kmh 29.94 in1013.9 mb 0.00 in0.0 mm 0.00 in0.0 mm 0.00 in0.0 mm
06:08 AM 40.6°F4.8°C 25.8°F-3.4°C 55% 0.7 mph SSE1.1 kmh SSE 3.8 mph6.1 kmh 29.94 in1013.9 mb 0.00 in0.0 mm 0.00 in0.0 mm 0.00 in0.0 mm
06:07 AM 40.6°F4.8°C 25.8°F-3.4°C 55% 0.7 mph SE1.1 kmh SE 3.8 mph6.1 kmh 29.94 in1013.9 mb 0.00 in0.0 mm 0.00 in0.0 mm 0.00 in0.0 mm
06:06 AM 40.8°F4.9°C 25.9°F-3.4°C 55% 0.7 mph SE1.1 kmh SE 3.8 mph6.1 kmh 29.94 in1013.9 mb 0.00 in0.0 mm 0.00 in0.0 mm 0.00 in0.0 mm
06:05 AM 40.8°F4.9°C 25.5°F-3.6°C 54% 0.7 mph SE1.1 kmh SE 3.8 mph6.1 kmh 29.94 in1013.9 mb 0.00 in0.0 mm 0.00 in0.0 mm 0.00 in0.0 mm
06:04 AM 40.6°F4.8°C 25.3°F-3.7°C 54% Calm Calm 3.8 mph6.1 kmh 29.94 in1013.9 mb 0.00 in0.0 mm 0.00 in0.0 mm 0.00 in0.0 mm
06:03 AM 40.8°F4.9°C 25.5°F-3.6°C 54% 0.7 mph SE1.1 kmh SE 3.8 mph6.1 kmh 29.94 in1013.9 mb 0.00 in0.0 mm 0.00 in0.0 mm 0.00 in0.0 mm
06:02 AM 40.8°F4.9°C 25.5°F-3.6°C 54% Calm Calm 3.8 mph6.1 kmh 29.94 in1013.9 mb 0.00 in0.0 mm 0.00 in0.0 mm 0.00 in0.0 mm
06:01 AM 40.6°F4.8°C 25.3°F-3.7°C 54% 0.7 mph SSE1.1 kmh SSE 3.8 mph6.1 kmh 29.93 in1013.5 mb 0.00 in0.0 mm 0.00 in0.0 mm 0.00 in0.0 mm
06:00 AM 40.6°F4.8°C 25.3°F-3.7°C 54% 0.7 mph SSE1.1 kmh SSE 3.8 mph6.1 kmh 29.94 in1013.9 mb 0.00 in0.0 mm 0.00 in0.0 mm 0.00 in0.0 mm
05:59 AM 40.6°F4.8°C 25.3°F-3.7°C 54% 1.6 mph SSE2.6 kmh SSE 3.8 mph6.1 kmh 29.93 in1013.5 mb 0.00 in0.0 mm 0.00 in0.0 mm 0.00 in0.0 mm
05:58 AM 40.6°F4.8°C 25.3°F-3.7°C 54% 0.7 mph SSE1.1 kmh SSE 3.8 mph6.1 kmh 29.93 in1013.5 mb 0.00 in0.0 mm 0.00 in0.0 mm 0.00 in0.0 mm
05:57 AM 40.6°F4.8°C 25.3°F-3.7°C 54% Calm Calm 3.1 mph5.0 kmh 29.94 in1013.9 mb 0.00 in0.0 mm 0.00 in0.0 mm 0.00 in0.0 mm
05:56 AM 40.6°F4.8°C 25.8°F-3.4°C 55% Calm Calm 3.1 mph5.0 kmh 29.93 in1013.5 mb 0.00 in0.0 mm 0.00 in0.0 mm 0.00 in0.0 mm
05:55 AM 40.6°F4.8°C 25.3°F-3.7°C 54% 1.6 mph S2.6 kmh S 3.1 mph5.0 kmh 29.93 in1013.5 mb 0.00 in0.0 mm 0.00 in0.0 mm 0.00 in0.0 mm
05:54 AM 40.6°F4.8°C 25.3°F-3.7°C 54% 1.6 mph S2.6 kmh S 3.1 mph5.0 kmh 29.93 in1013.5 mb 0.00 in0.0 mm 0.00 in0.0 mm 0.00 in0.0 mm
05:53 AM 40.6°F4.8°C 25.3°F-3.7°C 54% 1.6 mph S2.6 kmh S 3.1 mph5.0 kmh 29.93 in1013.5 mb 0.00 in0.0 mm 0.00 in0.0 mm 0.00 in0.0 mm
05:52 AM 40.6°F4.8°C 25.8°F-3.4°C 55% 0.7 mph S1.1 kmh S 3.1 mph5.0 kmh 29.93 in1013.5 mb 0.00 in0.0 mm 0.00 in0.0 mm 0.00 in0.0 mm
05:51 AM 40.6°F4.8°C 25.8°F-3.4°C 55% 1.6 mph S2.6 kmh S 3.1 mph5.0 kmh 29.93 in1013.5 mb 0.00 in0.0 mm 0.00 in0.0 mm 0.00 in0.0 mm
05:50 AM 40.6°F4.8°C 25.8°F-3.4°C 55% 1.6 mph S2.6 kmh S 3.1 mph5.0 kmh 29.93 in1013.5 mb 0.00 in0.0 mm 0.00 in0.0 mm 0.00 in0.0 mm
05:49 AM 40.6°F4.8°C 25.8°F-3.4°C 55% 1.6 mph S2.6 kmh S 3.1 mph5.0 kmh 29.93 in1013.5 mb 0.00 in0.0 mm 0.00 in0.0 mm 0.00 in0.0 mm
05:48 AM 40.6°F4.8°C 25.8°F-3.4°C 55% 1.6 mph S2.6 kmh S 3.1 mph5.0 kmh 29.93 in1013.5 mb 0.00 in0.0 mm 0.00 in0.0 mm 0.00 in0.0 mm
05:47 AM 40.6°F4.8°C 25.8°F-3.4°C 55% 0.7 mph S1.1 kmh S 3.1 mph5.0 kmh 29.93 in1013.5 mb 0.00 in0.0 mm 0.00 in0.0 mm 0.00 in0.0 mm
05:46 AM 40.6°F4.8°C 25.8°F-3.4°C 55% 1.6 mph S2.6 kmh S 3.1 mph5.0 kmh 29.94 in1013.9 mb 0.00 in0.0 mm 0.00 in0.0 mm 0.00 in0.0 mm
05:45 AM 40.6°F4.8°C 25.8°F-3.4°C 55% 1.6 mph S2.6 kmh S 3.1 mph5.0 kmh 29.94 in1013.9 mb 0.00 in0.0 mm 0.00 in0.0 mm 0.00 in0.0 mm
05:44 AM 40.6°F4.8°C 25.8°F-3.4°C 55% 0.7 mph S1.1 kmh S 3.1 mph5.0 kmh 29.94 in1013.9 mb 0.00 in0.0 mm 0.00 in0.0 mm 0.00 in0.0 mm
05:43 AM 40.8°F4.9°C 25.9°F-3.4°C 55% 1.6 mph S2.6 kmh S 3.1 mph5.0 kmh 29.94 in1013.9 mb 0.00 in0.0 mm 0.00 in0.0 mm 0.00 in0.0 mm
05:42 AM 40.6°F4.8°C 25.8°F-3.4°C 55% 0.7 mph S1.1 kmh S 3.1 mph5.0 kmh 29.94 in1013.9 mb 0.00 in0.0 mm 0.00 in0.0 mm 0.00 in0.0 mm
05:41 AM 40.8°F4.9°C 25.9°F-3.4°C 55% 0.7 mph S1.1 kmh S 3.1 mph5.0 kmh 29.94 in1013.9 mb 0.00 in0.0 mm 0.00 in0.0 mm 0.00 in0.0 mm
05:40 AM 40.8°F4.9°C 25.9°F-3.4°C 55% 1.6 mph S2.6 kmh S 3.1 mph5.0 kmh 29.94 in1013.9 mb 0.00 in0.0 mm 0.00 in0.0 mm 0.00 in0.0 mm
05:39 AM 40.8°F4.9°C 25.9°F-3.4°C 55% 0.7 mph S1.1 kmh S 2.2 mph3.5 kmh 29.93 in1013.5 mb 0.00 in0.0 mm 0.00 in0.0 mm 0.00 in0.0 mm
05:38 AM 40.6°F4.8°C 25.8°F-3.4°C 55% Calm Calm 2.2 mph3.5 kmh 29.93 in1013.5 mb 0.00 in0.0 mm 0.00 in0.0 mm 0.00 in0.0 mm
05:37 AM 40.8°F4.9°C 25.9°F-3.4°C 55% 0.7 mph S1.1 kmh S 2.2 mph3.5 kmh 29.94 in1013.9 mb 0.00 in0.0 mm 0.00 in0.0 mm 0.00 in0.0 mm
05:36 AM 40.6°F4.8°C 25.8°F-3.4°C 55% 0.7 mph S1.1 kmh S 2.2 mph3.5 kmh 29.94 in1013.9 mb 0.00 in0.0 mm 0.00 in0.0 mm 0.00 in0.0 mm
05:35 AM 40.8°F4.9°C 25.9°F-3.4°C 55% Calm Calm 2.2 mph3.5 kmh 29.94 in1013.9 mb 0.00 in0.0 mm 0.00 in0.0 mm 0.00 in0.0 mm
05:34 AM 40.8°F4.9°C 25.9°F-3.4°C 55% Calm Calm 2.2 mph3.5 kmh 29.94 in1013.9 mb 0.00 in0.0 mm 0.00 in0.0 mm 0.00 in0.0 mm
05:33 AM 40.8°F4.9°C 25.9°F-3.4°C 55% 1.6 mph S2.6 kmh S 2.2 mph3.5 kmh 29.94 in1013.9 mb 0.00 in0.0 mm 0.00 in0.0 mm 0.00 in0.0 mm
05:32 AM 40.8°F4.9°C 25.9°F-3.4°C 55% 0.7 mph S1.1 kmh S 2.2 mph3.5 kmh 29.94 in1013.9 mb 0.00 in0.0 mm 0.00 in0.0 mm 0.00 in0.0 mm
05:31 AM 40.8°F4.9°C 25.9°F-3.4°C 55% Calm Calm 2.2 mph3.5 kmh 29.94 in1013.9 mb 0.00 in0.0 mm 0.00 in0.0 mm 0.00 in0.0 mm
05:30 AM 40.8°F4.9°C 25.9°F-3.4°C 55% Calm Calm 2.2 mph3.5 kmh 29.94 in1013.9 mb 0.00 in0.0 mm 0.00 in0.0 mm 0.00 in0.0 mm
05:29 AM 40.8°F4.9°C 25.9°F-3.4°C 55% Calm Calm 2.2 mph3.5 kmh 29.94 in1013.9 mb 0.00 in0.0 mm 0.00 in0.0 mm 0.00 in0.0 mm
05:28 AM 40.8°F4.9°C 25.9°F-3.4°C 55% Calm Calm 3.1 mph5.0 kmh 29.94 in1013.9 mb 0.00 in0.0 mm 0.00 in0.0 mm 0.00 in0.0 mm
05:27 AM 40.8°F4.9°C 26.4°F-3.1°C 56% Calm Calm 3.1 mph5.0 kmh 29.94 in1013.9 mb 0.00 in0.0 mm 0.00 in0.0 mm 0.00 in0.0 mm
05:26 AM 40.8°F4.9°C 26.4°F-3.1°C 56% Calm Calm 3.1 mph5.0 kmh 29.94 in1013.9 mb 0.00 in0.0 mm 0.00 in0.0 mm 0.00 in0.0 mm
05:25 AM 40.8°F4.9°C 26.4°F-3.1°C 56% Calm Calm 3.1 mph5.0 kmh 29.95 in1014.2 mb 0.00 in0.0 mm 0.00 in0.0 mm 0.00 in0.0 mm
05:24 AM 40.8°F4.9°C 26.4°F-3.1°C 56% 0.7 mph S1.1 kmh S 3.1 mph5.0 kmh 29.94 in1013.9 mb 0.00 in0.0 mm 0.00 in0.0 mm 0.00 in0.0 mm
05:23 AM 41.0°F5.0°C 26.5°F-3.1°C 56% 0.7 mph S1.1 kmh S 3.1 mph5.0 kmh 29.94 in1013.9 mb 0.00 in0.0 mm 0.00 in0.0 mm 0.00 in0.0 mm
05:22 AM 41.0°F5.0°C 26.5°F-3.1°C 56% 0.7 mph S1.1 kmh S 3.1 mph5.0 kmh 29.95 in1014.2 mb 0.00 in0.0 mm 0.00 in0.0 mm 0.00 in0.0 mm
05:21 AM 40.8°F4.9°C 25.9°F-3.4°C 55% Calm Calm 3.1 mph5.0 kmh 29.95 in1014.2 mb 0.00 in0.0 mm 0.00 in0.0 mm 0.00 in0.0 mm
05:20 AM 41.0°F5.0°C 26.5°F-3.1°C 56% Calm Calm 3.1 mph5.0 kmh 29.95 in1014.2 mb 0.00 in0.0 mm 0.00 in0.0 mm 0.00 in0.0 mm
05:19 AM 41.0°F5.0°C 26.1°F-3.3°C 55% Calm Calm 3.1 mph5.0 kmh 29.95 in1014.2 mb 0.00 in0.0 mm 0.00 in0.0 mm 0.00 in0.0 mm
05:18 AM 41.0°F5.0°C 25.6°F-3.6°C 54% 1.6 mph SSE2.6 kmh SSE 3.1 mph5.0 kmh 29.94 in1013.9 mb 0.00 in0.0 mm 0.00 in0.0 mm 0.00 in0.0 mm
05:17 AM 41.0°F5.0°C 25.6°F-3.6°C 54% 1.6 mph S2.6 kmh S 3.1 mph5.0 kmh 29.94 in1013.9 mb 0.00 in0.0 mm 0.00 in0.0 mm 0.00 in0.0 mm
05:16 AM 41.0°F5.0°C 26.1°F-3.3°C 55% Calm Calm 2.2 mph3.5 kmh 29.94 in1013.9 mb 0.00 in0.0 mm 0.00 in0.0 mm 0.00 in0.0 mm
05:15 AM 41.0°F5.0°C 26.1°F-3.3°C 55% Calm Calm 2.2 mph3.5 kmh 29.95 in1014.2 mb 0.00 in0.0 mm 0.00 in0.0 mm 0.00 in0.0 mm
05:14 AM 41.0°F5.0°C 26.1°F-3.3°C 55% Calm Calm 3.1 mph5.0 kmh 29.95 in1014.2 mb 0.00 in0.0 mm 0.00 in0.0 mm 0.00 in0.0 mm
05:13 AM 41.0°F5.0°C 26.1°F-3.3°C 55% Calm Calm 3.1 mph5.0 kmh 29.94 in1013.9 mb 0.00 in0.0 mm 0.00 in0.0 mm 0.00 in0.0 mm
05:12 AM 41.0°F5.0°C 26.1°F-3.3°C 55% Calm Calm 3.1 mph5.0 kmh 29.95 in1014.2 mb 0.00 in0.0 mm 0.00 in0.0 mm 0.00 in0.0 mm
05:11 AM 41.0°F5.0°C 26.1°F-3.3°C 55% 0.7 mph E1.1 kmh E 3.1 mph5.0 kmh 29.95 in1014.2 mb 0.00 in0.0 mm 0.00 in0.0 mm 0.00 in0.0 mm
05:10 AM 41.0°F5.0°C 25.6°F-3.6°C 54% Calm Calm 3.1 mph5.0 kmh 29.95 in1014.2 mb 0.00 in0.0 mm 0.00 in0.0 mm 0.00 in0.0 mm
05:09 AM 41.0°F5.0°C 26.1°F-3.3°C 55% Calm Calm 3.1 mph5.0 kmh 29.94 in1013.9 mb 0.00 in0.0 mm 0.00 in0.0 mm 0.00 in0.0 mm
05:08 AM 41.2°F5.1°C 25.8°F-3.4°C 54% Calm Calm 5.4 mph8.7 kmh 29.95 in1014.2 mb 0.00 in0.0 mm 0.00 in0.0 mm 0.00 in0.0 mm
05:07 AM 41.2°F5.1°C 25.8°F-3.4°C 54% 0.7 mph E1.1 kmh E 5.4 mph8.7 kmh 29.95 in1014.2 mb 0.00 in0.0 mm 0.00 in0.0 mm 0.00 in0.0 mm
05:06 AM 41.2°F5.1°C 25.8°F-3.4°C 54% 1.6 mph E2.6 kmh E 5.4 mph8.7 kmh 29.94 in1013.9 mb 0.00 in0.0 mm 0.00 in0.0 mm 0.00 in0.0 mm
05:05 AM 41.2°F5.1°C 25.8°F-3.4°C 54% Calm Calm 5.4 mph8.7 kmh 29.95 in1014.2 mb 0.00 in0.0 mm 0.00 in0.0 mm 0.00 in0.0 mm
05:04 AM 41.4°F5.2°C 25.5°F-3.6°C 53% 1.6 mph ENE2.6 kmh ENE 5.4 mph8.7 kmh 29.95 in1014.2 mb 0.00 in0.0 mm 0.00 in0.0 mm 0.00 in0.0 mm
05:03 AM 41.4°F5.2°C 25.5°F-3.6°C 53% 1.6 mph NE2.6 kmh NE 5.4 mph8.7 kmh 29.95 in1014.2 mb 0.00 in0.0 mm 0.00 in0.0 mm 0.00 in0.0 mm
05:02 AM 41.4°F5.2°C 25.5°F-3.6°C 53% 1.6 mph N2.6 kmh N 5.4 mph8.7 kmh 29.95 in1014.2 mb 0.00 in0.0 mm 0.00 in0.0 mm 0.00 in0.0 mm
05:01 AM 41.4°F5.2°C 25.5°F-3.6°C 53% 1.6 mph NNW2.6 kmh NNW 5.4 mph8.7 kmh 29.94 in1013.9 mb 0.00 in0.0 mm 0.00 in0.0 mm 0.00 in0.0 mm
05:00 AM 41.4°F5.2°C 25.5°F-3.6°C 53% 1.6 mph NW2.6 kmh NW 5.4 mph8.7 kmh 29.95 in1014.2 mb 0.00 in0.0 mm 0.00 in0.0 mm 0.00 in0.0 mm
04:59 AM 41.2°F5.1°C 25.4°F-3.7°C 53% 0.7 mph NNW1.1 kmh NNW 5.4 mph8.7 kmh 29.94 in1013.9 mb 0.00 in0.0 mm 0.00 in0.0 mm 0.00 in0.0 mm
04:58 AM 41.2°F5.1°C 25.4°F-3.7°C 53% 2.2 mph N3.5 kmh N 5.4 mph8.7 kmh 29.95 in1014.2 mb 0.00 in0.0 mm 0.00 in0.0 mm 0.00 in0.0 mm
04:57 AM 41.2°F5.1°C 25.4°F-3.7°C 53% Calm Calm 5.4 mph8.7 kmh 29.94 in1013.9 mb 0.00 in0.0 mm 0.00 in0.0 mm 0.00 in0.0 mm
04:56 AM 41.2°F5.1°C 24.9°F-3.9°C 52% Calm Calm 5.4 mph8.7 kmh 29.94 in1013.9 mb 0.00 in0.0 mm 0.00 in0.0 mm 0.00 in0.0 mm
04:55 AM 41.2°F5.1°C 24.9°F-3.9°C 52% 2.2 mph N3.5 kmh N 5.4 mph8.7 kmh 29.94 in1013.9 mb 0.00 in0.0 mm 0.00 in0.0 mm 0.00 in0.0 mm
04:54 AM 41.2°F5.1°C 25.4°F-3.7°C 53% Calm Calm 5.4 mph8.7 kmh 29.95 in1014.2 mb 0.00 in0.0 mm 0.00 in0.0 mm 0.00 in0.0 mm
04:53 AM 41.2°F5.1°C 25.4°F-3.7°C 53% 3.1 mph NE5.0 kmh NE 5.4 mph8.7 kmh 29.95 in1014.2 mb 0.00 in0.0 mm 0.00 in0.0 mm 0.00 in0.0 mm
04:52 AM 41.2°F5.1°C 25.4°F-3.7°C 53% 3.1 mph E5.0 kmh E 5.4 mph8.7 kmh 29.95 in1014.2 mb 0.00 in0.0 mm 0.00 in0.0 mm 0.00 in0.0 mm
04:51 AM 41.2°F5.1°C 25.4°F-3.7°C 53% 1.6 mph ESE2.6 kmh ESE 3.8 mph6.1 kmh 29.95 in1014.2 mb 0.00 in0.0 mm 0.00 in0.0 mm 0.00 in0.0 mm
04:50 AM 41.2°F5.1°C 24.9°F-3.9°C 52% 1.6 mph ESE2.6 kmh ESE 3.8 mph6.1 kmh 29.95 in1014.2 mb 0.00 in0.0 mm 0.00 in0.0 mm 0.00 in0.0 mm
04:49 AM 41.2°F5.1°C 24.9°F-3.9°C 52% 1.6 mph SE2.6 kmh SE 3.8 mph6.1 kmh 29.95 in1014.2 mb 0.00 in0.0 mm 0.00 in0.0 mm 0.00 in0.0 mm
04:48 AM 41.2°F5.1°C 24.9°F-3.9°C 52% Calm Calm 3.1 mph5.0 kmh 29.95 in1014.2 mb 0.00 in0.0 mm 0.00 in0.0 mm 0.00 in0.0 mm
04:47 AM 41.2°F5.1°C 25.4°F-3.7°C 53% 0.7 mph SE1.1 kmh SE 3.1 mph5.0 kmh 29.95 in1014.2 mb 0.00 in0.0 mm 0.00 in0.0 mm 0.00 in0.0 mm
04:46 AM 41.0°F5.0°C 25.2°F-3.8°C 53% Calm Calm 3.1 mph5.0 kmh 29.95 in1014.2 mb 0.00 in0.0 mm 0.00 in0.0 mm 0.00 in0.0 mm
04:45 AM 41.0°F5.0°C 25.2°F-3.8°C 53% Calm Calm 3.1 mph5.0 kmh 29.95 in1014.2 mb 0.00 in0.0 mm 0.00 in0.0 mm 0.00 in0.0 mm
04:44 AM 41.2°F5.1°C 25.4°F-3.7°C 53% 0.7 mph SE1.1 kmh SE 3.1 mph5.0 kmh 29.95 in1014.2 mb 0.00 in0.0 mm 0.00 in0.0 mm 0.00 in0.0 mm
04:43 AM 41.2°F5.1°C 25.4°F-3.7°C 53% Calm Calm 3.1 mph5.0 kmh 29.94 in1013.9 mb 0.00 in0.0 mm 0.00 in0.0 mm 0.00 in0.0 mm
04:42 AM 41.2°F5.1°C 25.4°F-3.7°C 53% 1.6 mph SE2.6 kmh SE 3.8 mph6.1 kmh 29.94 in1013.9 mb 0.00 in0.0 mm 0.00 in0.0 mm 0.00 in0.0 mm
04:41 AM 41.2°F5.1°C 25.4°F-3.7°C 53% 0.7 mph SE1.1 kmh SE 3.8 mph6.1 kmh 29.94 in1013.9 mb 0.00 in0.0 mm 0.00 in0.0 mm 0.00 in0.0 mm
04:40 AM 41.2°F5.1°C 25.4°F-3.7°C 53% Calm Calm 3.8 mph6.1 kmh 29.95 in1014.2 mb 0.00 in0.0 mm 0.00 in0.0 mm 0.00 in0.0 mm
04:39 AM 41.2°F5.1°C 25.4°F-3.7°C 53% 0.7 mph ESE1.1 kmh ESE 3.8 mph6.1 kmh 29.95 in1014.2 mb 0.00 in0.0 mm 0.00 in0.0 mm 0.00 in0.0 mm
04:38 AM 41.2°F5.1°C 25.4°F-3.7°C 53% 0.7 mph E1.1 kmh E 3.8 mph6.1 kmh 29.95 in1014.2 mb 0.00 in0.0 mm 0.00 in0.0 mm 0.00 in0.0 mm
04:37 AM 41.2°F5.1°C 25.4°F-3.7°C 53% 0.7 mph ESE1.1 kmh ESE 3.8 mph6.1 kmh 29.95 in1014.2 mb 0.00 in0.0 mm 0.00 in0.0 mm 0.00 in0.0 mm
04:36 AM 41.2°F5.1°C 25.8°F-3.4°C 54% Calm Calm 4.5 mph7.2 kmh 29.95 in1014.2 mb 0.00 in0.0 mm 0.00 in0.0 mm 0.00 in0.0 mm
04:35 AM 41.2°F5.1°C 25.4°F-3.7°C 53% 1.6 mph ENE2.6 kmh ENE 4.5 mph7.2 kmh 29.95 in1014.2 mb 0.00 in0.0 mm 0.00 in0.0 mm 0.00 in0.0 mm
04:34 AM 41.2°F5.1°C 25.4°F-3.7°C 53% Calm Calm 4.5 mph7.2 kmh 29.95 in1014.2 mb 0.00 in0.0 mm 0.00 in0.0 mm 0.00 in0.0 mm
04:33 AM 41.2°F5.1°C 25.4°F-3.7°C 53% 1.6 mph NE2.6 kmh NE 4.5 mph7.2 kmh 29.95 in1014.2 mb 0.00 in0.0 mm 0.00 in0.0 mm 0.00 in0.0 mm
04:32 AM 41.2°F5.1°C 25.8°F-3.4°C 54% 0.7 mph NE1.1 kmh NE 4.5 mph7.2 kmh 29.95 in1014.2 mb 0.00 in0.0 mm 0.00 in0.0 mm 0.00 in0.0 mm
04:31 AM 41.2°F5.1°C 25.4°F-3.7°C 53% 0.7 mph NE1.1 kmh NE 4.5 mph7.2 kmh 29.95 in1014.2 mb 0.00 in0.0 mm 0.00 in0.0 mm 0.00 in0.0 mm
04:30 AM 41.2°F5.1°C 25.4°F-3.7°C 53% 0.7 mph ENE1.1 kmh ENE 4.5 mph7.2 kmh 29.95 in1014.2 mb 0.00 in0.0 mm 0.00 in0.0 mm 0.00 in0.0 mm
04:29 AM 41.2°F5.1°C 25.4°F-3.7°C 53% 0.7 mph E1.1 kmh E 4.5 mph7.2 kmh 29.95 in1014.2 mb 0.00 in0.0 mm 0.00 in0.0 mm 0.00 in0.0 mm
04:28 AM 41.2°F5.1°C 25.4°F-3.7°C 53% Calm Calm 4.5 mph7.2 kmh 29.95 in1014.2 mb 0.00 in0.0 mm 0.00 in0.0 mm 0.00 in0.0 mm
04:27 AM 41.2°F5.1°C 25.8°F-3.4°C 54% 0.7 mph ENE1.1 kmh ENE 4.5 mph7.2 kmh 29.95 in1014.2 mb 0.00 in0.0 mm 0.00 in0.0 mm 0.00 in0.0 mm
04:26 AM 41.0°F5.0°C 25.6°F-3.6°C 54% 0.7 mph E1.1 kmh E 4.5 mph7.2 kmh 29.95 in1014.2 mb 0.00 in0.0 mm 0.00 in0.0 mm 0.00 in0.0 mm
04:25 AM 41.0°F5.0°C 25.6°F-3.6°C 54% 0.7 mph SE1.1 kmh SE 4.5 mph7.2 kmh 29.95 in1014.2 mb 0.00 in0.0 mm 0.00 in0.0 mm 0.00 in0.0 mm
04:24 AM 41.0°F5.0°C 25.6°F-3.6°C 54% 0.7 mph SSE1.1 kmh SSE 4.5 mph7.2 kmh 29.96 in1014.6 mb 0.00 in0.0 mm 0.00 in0.0 mm 0.00 in0.0 mm
04:23 AM 41.0°F5.0°C 26.1°F-3.3°C 55% Calm Calm 3.1 mph5.0 kmh 29.95 in1014.2 mb 0.00 in0.0 mm 0.00 in0.0 mm 0.00 in0.0 mm
04:22 AM 41.0°F5.0°C 26.1°F-3.3°C 55% Calm Calm 3.1 mph5.0 kmh 29.95 in1014.2 mb 0.00 in0.0 mm 0.00 in0.0 mm 0.00 in0.0 mm
04:21 AM 40.8°F4.9°C 26.4°F-3.1°C 56% 0.7 mph SE1.1 kmh SE 3.1 mph5.0 kmh 29.95 in1014.2 mb 0.00 in0.0 mm 0.00 in0.0 mm 0.00 in0.0 mm
04:20 AM 41.0°F5.0°C 26.5°F-3.1°C 56% Calm Calm 2.2 mph3.5 kmh 29.95 in1014.2 mb 0.00 in0.0 mm 0.00 in0.0 mm 0.00 in0.0 mm
04:19 AM 41.0°F5.0°C 26.5°F-3.1°C 56% Calm Calm 2.2 mph3.5 kmh 29.95 in1014.2 mb 0.00 in0.0 mm 0.00 in0.0 mm 0.00 in0.0 mm
04:18 AM 41.0°F5.0°C 26.5°F-3.1°C 56% Calm Calm 2.2 mph3.5 kmh 29.95 in1014.2 mb 0.00 in0.0 mm 0.00 in0.0 mm 0.00 in0.0 mm
04:17 AM 40.8°F4.9°C 26.4°F-3.1°C 56% Calm Calm 2.2 mph3.5 kmh 29.95 in1014.2 mb 0.00 in0.0 mm 0.00 in0.0 mm 0.00 in0.0 mm
04:16 AM 40.8°F4.9°C 25.9°F-3.4°C 55% Calm Calm 2.2 mph3.5 kmh 29.95 in1014.2 mb 0.00 in0.0 mm 0.00 in0.0 mm 0.00 in0.0 mm
04:15 AM 40.8°F4.9°C 25.9°F-3.4°C 55% Calm Calm 3.8 mph6.1 kmh 29.95 in1014.2 mb 0.00 in0.0 mm 0.00 in0.0 mm 0.00 in0.0 mm
04:14 AM 40.8°F4.9°C 25.9°F-3.4°C 55% 0.7 mph SSE1.1 kmh SSE 3.8 mph6.1 kmh 29.95 in1014.2 mb 0.00 in0.0 mm 0.00 in0.0 mm 0.00 in0.0 mm
04:13 AM 40.8°F4.9°C 25.9°F-3.4°C 55% 1.6 mph SSE2.6 kmh SSE 3.8 mph6.1 kmh 29.96 in1014.6 mb 0.00 in0.0 mm 0.00 in0.0 mm 0.00 in0.0 mm
04:12 AM 40.6°F4.8°C 26.2°F-3.2°C 56% Calm Calm 3.8 mph6.1 kmh 29.96 in1014.6 mb 0.00 in0.0 mm 0.00 in0.0 mm 0.00 in0.0 mm
04:11 AM 40.6°F4.8°C 26.2°F-3.2°C 56% Calm Calm 3.8 mph6.1 kmh 29.96 in1014.6 mb 0.00 in0.0 mm 0.00 in0.0 mm 0.00 in0.0 mm
04:10 AM 40.6°F4.8°C 26.2°F-3.2°C 56% 0.7 mph SSE1.1 kmh SSE 3.8 mph6.1 kmh 29.96 in1014.6 mb 0.00 in0.0 mm 0.00 in0.0 mm 0.00 in0.0 mm
04:09 AM 40.6°F4.8°C 26.2°F-3.2°C 56% Calm Calm 3.8 mph6.1 kmh 29.96 in1014.6 mb 0.00 in0.0 mm 0.00 in0.0 mm 0.00 in0.0 mm
04:08 AM 40.5°F4.7°C 25.6°F-3.6°C 55% 0.7 mph SSE1.1 kmh SSE 3.8 mph6.1 kmh 29.96 in1014.6 mb 0.00 in0.0 mm 0.00 in0.0 mm 0.00 in0.0 mm
04:07 AM 40.5°F4.7°C 25.6°F-3.6°C 55% 0.7 mph SSE1.1 kmh SSE 3.8 mph6.1 kmh 29.96 in1014.6 mb 0.00 in0.0 mm 0.00 in0.0 mm 0.00 in0.0 mm
04:06 AM 40.3°F4.6°C 25.4°F-3.7°C 55% 0.7 mph S1.1 kmh S 3.8 mph6.1 kmh 29.96 in1014.6 mb 0.00 in0.0 mm 0.00 in0.0 mm 0.00 in0.0 mm
04:05 AM 40.1°F4.5°C 25.7°F-3.5°C 56% 0.7 mph S1.1 kmh S 3.8 mph6.1 kmh 29.97 in1014.9 mb 0.00 in0.0 mm 0.00 in0.0 mm 0.00 in0.0 mm
04:04 AM 40.1°F4.5°C 25.7°F-3.5°C 56% 0.7 mph SE1.1 kmh SE 3.8 mph6.1 kmh 29.97 in1014.9 mb 0.00 in0.0 mm 0.00 in0.0 mm 0.00 in0.0 mm
04:03 AM 39.9°F4.4°C 25.5°F-3.6°C 56% 0.7 mph SE1.1 kmh SE 3.1 mph5.0 kmh 29.97 in1014.9 mb 0.00 in0.0 mm 0.00 in0.0 mm 0.00 in0.0 mm
04:02 AM 39.9°F4.4°C 25.5°F-3.6°C 56% 0.7 mph SE1.1 kmh SE 3.1 mph5.0 kmh 29.97 in1014.9 mb 0.00 in0.0 mm 0.00 in0.0 mm 0.00 in0.0 mm
04:01 AM 39.7°F4.3°C 25.8°F-3.4°C 57% Calm Calm 2.2 mph3.5 kmh 29.96 in1014.6 mb 0.00 in0.0 mm 0.00 in0.0 mm 0.00 in0.0 mm
04:00 AM 39.7°F4.3°C 25.8°F-3.4°C 57% Calm Calm 2.2 mph3.5 kmh 29.96 in1014.6 mb 0.00 in0.0 mm 0.00 in0.0 mm 0.00 in0.0 mm
03:59 AM 39.7°F4.3°C 26.2°F-3.2°C 58% 0.7 mph SSE1.1 kmh SSE 2.2 mph3.5 kmh 29.97 in1014.9 mb 0.00 in0.0 mm 0.00 in0.0 mm 0.00 in0.0 mm
03:58 AM 39.7°F4.3°C 25.8°F-3.4°C 57% Calm Calm 3.8 mph6.1 kmh 29.97 in1014.9 mb 0.00 in0.0 mm 0.00 in0.0 mm 0.00 in0.0 mm
03:57 AM 39.6°F4.2°C 25.6°F-3.6°C 57% Calm Calm 3.8 mph6.1 kmh 29.97 in1014.9 mb 0.00 in0.0 mm 0.00 in0.0 mm 0.00 in0.0 mm
03:56 AM 39.6°F4.2°C 25.6°F-3.6°C 57% Calm Calm 3.8 mph6.1 kmh 29.97 in1014.9 mb 0.00 in0.0 mm 0.00 in0.0 mm 0.00 in0.0 mm
03:55 AM 39.6°F4.2°C 25.6°F-3.6°C 57% Calm Calm 3.8 mph6.1 kmh 29.97 in1014.9 mb 0.00 in0.0 mm 0.00 in0.0 mm 0.00 in0.0 mm
03:54 AM 39.6°F4.2°C 26.0°F-3.3°C 58% Calm Calm 3.8 mph6.1 kmh 29.97 in1014.9 mb 0.00 in0.0 mm 0.00 in0.0 mm 0.00 in0.0 mm
03:53 AM 39.4°F4.1°C 25.9°F-3.4°C 58% Calm Calm 3.8 mph6.1 kmh 29.97 in1014.9 mb 0.00 in0.0 mm 0.00 in0.0 mm 0.00 in0.0 mm
03:52 AM 39.4°F4.1°C 25.9°F-3.4°C 58% 0.7 mph SSW1.1 kmh SSW 3.8 mph6.1 kmh 29.96 in1014.6 mb 0.00 in0.0 mm 0.00 in0.0 mm 0.00 in0.0 mm
03:51 AM 39.4°F4.1°C 25.9°F-3.4°C 58% Calm Calm 3.8 mph6.1 kmh 29.97 in1014.9 mb 0.00 in0.0 mm 0.00 in0.0 mm 0.00 in0.0 mm
03:50 AM 39.4°F4.1°C 25.9°F-3.4°C 58% Calm Calm 3.8 mph6.1 kmh 29.97 in1014.9 mb 0.00 in0.0 mm 0.00 in0.0 mm 0.00 in0.0 mm
03:49 AM 39.4°F4.1°C 25.9°F-3.4°C 58% Calm Calm 3.8 mph6.1 kmh 29.96 in1014.6 mb 0.00 in0.0 mm 0.00 in0.0 mm 0.00 in0.0 mm
03:48 AM 39.4°F4.1°C 25.9°F-3.4°C 58% 1.6 mph S2.6 kmh S 3.8 mph6.1 kmh 29.96 in1014.6 mb 0.00 in0.0 mm 0.00 in0.0 mm 0.00 in0.0 mm
03:47 AM 39.4°F4.1°C 25.9°F-3.4°C 58% Calm Calm 3.8 mph6.1 kmh 29.96 in1014.6 mb 0.00 in0.0 mm 0.00 in0.0 mm 0.00 in0.0 mm
03:46 AM 39.2°F4.0°C 25.7°F-3.5°C 58% Calm Calm 3.8 mph6.1 kmh 29.97 in1014.9 mb 0.00 in0.0 mm 0.00 in0.0 mm 0.00 in0.0 mm
03:45 AM 39.2°F4.0°C 25.7°F-3.5°C 58% Calm Calm 3.8 mph6.1 kmh 29.96 in1014.6 mb 0.00 in0.0 mm 0.00 in0.0 mm 0.00 in0.0 mm
03:44 AM 39.2°F4.0°C 25.7°F-3.5°C 58% Calm Calm 3.8 mph6.1 kmh 29.96 in1014.6 mb 0.00 in0.0 mm 0.00 in0.0 mm 0.00 in0.0 mm
03:43 AM 39.2°F4.0°C 25.7°F-3.5°C 58% 0.7 mph S1.1 kmh S 3.8 mph6.1 kmh 29.97 in1014.9 mb 0.00 in0.0 mm 0.00 in0.0 mm 0.00 in0.0 mm
03:42 AM 39.0°F3.9°C 25.5°F-3.6°C 58% 1.6 mph S2.6 kmh S 3.8 mph6.1 kmh 29.97 in1014.9 mb 0.00 in0.0 mm 0.00 in0.0 mm 0.00 in0.0 mm
03:41 AM 39.0°F3.9°C 25.1°F-3.8°C 57% Calm Calm 2.2 mph3.5 kmh 29.97 in1014.9 mb 0.00 in0.0 mm 0.00 in0.0 mm 0.00 in0.0 mm
03:40 AM 39.0°F3.9°C 25.1°F-3.8°C 57% Calm Calm 2.2 mph3.5 kmh 29.97 in1014.9 mb 0.00 in0.0 mm 0.00 in0.0 mm 0.00 in0.0 mm
03:39 AM 38.8°F3.8°C 25.3°F-3.7°C 58% Calm Calm 3.8 mph6.1 kmh 29.97 in1014.9 mb 0.00 in0.0 mm 0.00 in0.0 mm 0.00 in0.0 mm
03:38 AM 38.8°F3.8°C 25.3°F-3.7°C 58% Calm Calm 3.8 mph6.1 kmh 29.97 in1014.9 mb 0.00 in0.0 mm 0.00 in0.0 mm 0.00 in0.0 mm
03:37 AM 38.8°F3.8°C 25.3°F-3.7°C 58% 0.7 mph S1.1 kmh S 3.8 mph6.1 kmh 29.97 in1014.9 mb 0.00 in0.0 mm 0.00 in0.0 mm 0.00 in0.0 mm
03:36 AM 38.7°F3.7°C 25.2°F-3.8°C 58% Calm Calm 3.8 mph6.1 kmh 29.98 in1015.2 mb 0.00 in0.0 mm 0.00 in0.0 mm 0.00 in0.0 mm
03:35 AM 38.8°F3.8°C 25.3°F-3.7°C 58% Calm Calm 3.8 mph6.1 kmh 29.97 in1014.9 mb 0.00 in0.0 mm 0.00 in0.0 mm 0.00 in0.0 mm
03:34 AM 38.7°F3.7°C 25.2°F-3.8°C 58% Calm Calm 3.8 mph6.1 kmh 29.97 in1014.9 mb 0.00 in0.0 mm 0.00 in0.0 mm 0.00 in0.0 mm
03:33 AM 38.8°F3.8°C 25.3°F-3.7°C 58% Calm Calm 3.8 mph6.1 kmh 29.97 in1014.9 mb 0.00 in0.0 mm 0.00 in0.0 mm 0.00 in0.0 mm
03:32 AM 38.8°F3.8°C 25.3°F-3.7°C 58% Calm Calm 3.8 mph6.1 kmh 29.96 in1014.6 mb 0.00 in0.0 mm 0.00 in0.0 mm 0.00 in0.0 mm
03:31 AM 38.8°F3.8°C 25.3°F-3.7°C 58% Calm Calm 3.8 mph6.1 kmh 29.97 in1014.9 mb 0.00 in0.0 mm 0.00 in0.0 mm 0.00 in0.0 mm
03:30 AM 38.8°F3.8°C 25.3°F-3.7°C 58% Calm Calm 3.8 mph6.1 kmh 29.97 in1014.9 mb 0.00 in0.0 mm 0.00 in0.0 mm 0.00 in0.0 mm
03:29 AM 38.8°F3.8°C 25.3°F-3.7°C 58% 1.6 mph SW2.6 kmh SW 3.8 mph6.1 kmh 29.97 in1014.9 mb 0.00 in0.0 mm 0.00 in0.0 mm 0.00 in0.0 mm
03:28 AM 38.8°F3.8°C 25.3°F-3.7°C 58% Calm Calm 3.1 mph5.0 kmh 29.97 in1014.9 mb 0.00 in0.0 mm 0.00 in0.0 mm 0.00 in0.0 mm
03:27 AM 39.0°F3.9°C 25.5°F-3.6°C 58% Calm Calm 3.1 mph5.0 kmh 29.97 in1014.9 mb 0.00 in0.0 mm 0.00 in0.0 mm 0.00 in0.0 mm
03:26 AM 39.0°F3.9°C 25.5°F-3.6°C 58% 0.7 mph SW1.1 kmh SW 3.1 mph5.0 kmh 29.97 in1014.9 mb 0.00 in0.0 mm 0.00 in0.0 mm 0.00 in0.0 mm
03:25 AM 39.0°F3.9°C 25.5°F-3.6°C 58% Calm Calm 3.1 mph5.0 kmh 29.97 in1014.9 mb 0.00 in0.0 mm 0.00 in0.0 mm 0.00 in0.0 mm
03:24 AM 39.0°F3.9°C 25.5°F-3.6°C 58% 0.7 mph SW1.1 kmh SW 3.1 mph5.0 kmh 29.97 in1014.9 mb 0.00 in0.0 mm 0.00 in0.0 mm 0.00 in0.0 mm
03:23 AM 39.0°F3.9°C 25.1°F-3.8°C 57% Calm Calm 3.1 mph5.0 kmh 29.98 in1015.2 mb 0.00 in0.0 mm 0.00 in0.0 mm 0.00 in0.0 mm
03:22 AM 39.0°F3.9°C 25.1°F-3.8°C 57% 1.6 mph SW2.6 kmh SW 3.1 mph5.0 kmh 29.97 in1014.9 mb 0.00 in0.0 mm 0.00 in0.0 mm 0.00 in0.0 mm
03:21 AM 39.0°F3.9°C 25.5°F-3.6°C 58% 0.7 mph SW1.1 kmh SW 3.1 mph5.0 kmh 29.98 in1015.2 mb 0.00 in0.0 mm 0.00 in0.0 mm 0.00 in0.0 mm
03:20 AM 39.0°F3.9°C 25.5°F-3.6°C 58% 0.7 mph SW1.1 kmh SW 3.1 mph5.0 kmh 29.98 in1015.2 mb 0.00 in0.0 mm 0.00 in0.0 mm 0.00 in0.0 mm
03:19 AM 39.2°F4.0°C 25.7°F-3.5°C 58% Calm Calm 3.1 mph5.0 kmh 29.98 in1015.2 mb 0.00 in0.0 mm 0.00 in0.0 mm 0.00 in0.0 mm
03:18 AM 39.2°F4.0°C 25.7°F-3.5°C 58% 0.7 mph SW1.1 kmh SW 3.1 mph5.0 kmh 29.98 in1015.2 mb 0.00 in0.0 mm 0.00 in0.0 mm 0.00 in0.0 mm
03:17 AM 39.2°F4.0°C 25.7°F-3.5°C 58% 1.6 mph SW2.6 kmh SW 3.1 mph5.0 kmh 29.98 in1015.2 mb 0.00 in0.0 mm 0.00 in0.0 mm 0.00 in0.0 mm
03:16 AM 39.2°F4.0°C 25.7°F-3.5°C 58% 1.6 mph SW2.6 kmh SW 3.1 mph5.0 kmh 29.98 in1015.2 mb 0.00 in0.0 mm 0.00 in0.0 mm 0.00 in0.0 mm
03:15 AM 39.2°F4.0°C 25.7°F-3.5°C 58% 1.6 mph SW2.6 kmh SW 3.1 mph5.0 kmh 29.98 in1015.2 mb 0.00 in0.0 mm 0.00 in0.0 mm 0.00 in0.0 mm
03:14 AM 39.0°F3.9°C 25.5°F-3.6°C 58% 1.6 mph SW2.6 kmh SW 3.1 mph5.0 kmh 29.98 in1015.2 mb 0.00 in0.0 mm 0.00 in0.0 mm 0.00 in0.0 mm
03:13 AM 39.2°F4.0°C 26.1°F-3.3°C 59% 1.6 mph SW2.6 kmh SW 3.1 mph5.0 kmh 29.98 in1015.2 mb 0.00 in0.0 mm 0.00 in0.0 mm 0.00 in0.0 mm
03:12 AM 39.2°F4.0°C 26.1°F-3.3°C 59% 1.6 mph SW2.6 kmh SW 3.1 mph5.0 kmh 29.98 in1015.2 mb 0.00 in0.0 mm 0.00 in0.0 mm 0.00 in0.0 mm
03:11 AM 39.0°F3.9°C 26.3°F-3.2°C 60% 0.7 mph SW1.1 kmh SW 3.1 mph5.0 kmh 29.98 in1015.2 mb 0.00 in0.0 mm 0.00 in0.0 mm 0.00 in0.0 mm
03:10 AM 38.8°F3.8°C 26.2°F-3.2°C 60% 0.7 mph SW1.1 kmh SW 3.1 mph5.0 kmh 29.98 in1015.2 mb 0.00 in0.0 mm 0.00 in0.0 mm 0.00 in0.0 mm
03:09 AM 38.8°F3.8°C 26.2°F-3.2°C 60% 0.7 mph SW1.1 kmh SW 3.1 mph5.0 kmh 29.98 in1015.2 mb 0.00 in0.0 mm 0.00 in0.0 mm 0.00 in0.0 mm
03:08 AM 38.8°F3.8°C 26.2°F-3.2°C 60% 1.6 mph SW2.6 kmh SW 3.1 mph5.0 kmh 29.98 in1015.2 mb 0.00 in0.0 mm 0.00 in0.0 mm 0.00 in0.0 mm
03:07 AM 38.7°F3.7°C 26.4°F-3.1°C 61% 1.6 mph SW2.6 kmh SW 3.1 mph5.0 kmh 29.98 in1015.2 mb 0.00 in0.0 mm 0.00 in0.0 mm 0.00 in0.0 mm
03:06 AM 38.5°F3.6°C 26.2°F-3.2°C 61% 0.7 mph SSW1.1 kmh SSW 3.1 mph5.0 kmh 29.98 in1015.2 mb 0.00 in0.0 mm 0.00 in0.0 mm 0.00 in0.0 mm
03:05 AM 38.5°F3.6°C 26.6°F-3.0°C 62% 0.7 mph SSW1.1 kmh SSW 2.2 mph3.5 kmh 29.99 in1015.6 mb 0.00 in0.0 mm 0.00 in0.0 mm 0.00 in0.0 mm
03:04 AM 38.5°F3.6°C 26.2°F-3.2°C 61% 0.7 mph SSW1.1 kmh SSW 2.2 mph3.5 kmh 29.99 in1015.6 mb 0.00 in0.0 mm 0.00 in0.0 mm 0.00 in0.0 mm
03:03 AM 38.5°F3.6°C 25.8°F-3.4°C 60% 0.7 mph SSW1.1 kmh SSW 2.2 mph3.5 kmh 30.00 in1015.9 mb 0.00 in0.0 mm 0.00 in0.0 mm 0.00 in0.0 mm
03:02 AM 38.5°F3.6°C 25.4°F-3.7°C 59% Calm Calm 2.2 mph3.5 kmh 30.00 in1015.9 mb 0.00 in0.0 mm 0.00 in0.0 mm 0.00 in0.0 mm
03:01 AM 38.5°F3.6°C 25.0°F-3.9°C 58% Calm Calm -- 30.00 in1015.9 mb 0.00 in0.0 mm 0.00 in0.0 mm 0.00 in0.0 mm
03:00 AM 38.5°F3.6°C 25.0°F-3.9°C 58% Calm Calm -- 30.00 in1015.9 mb 0.00 in0.0 mm 0.00 in0.0 mm 0.00 in0.0 mm
02:59 AM 38.5°F3.6°C 25.0°F-3.9°C 58% Calm Calm -- 30.00 in1015.9 mb 0.00 in0.0 mm 0.00 in0.0 mm 0.00 in0.0 mm
02:58 AM 38.5°F3.6°C 25.0°F-3.9°C 58% Calm Calm -- 30.01 in1016.3 mb 0.00 in0.0 mm 0.00 in0.0 mm 0.00 in0.0 mm
02:57 AM 38.5°F3.6°C 25.0°F-3.9°C 58% Calm Calm -- 30.01 in1016.3 mb 0.00 in0.0 mm 0.00 in0.0 mm 0.00 in0.0 mm
02:56 AM 38.5°F3.6°C 25.0°F-3.9°C 58% Calm Calm -- 30.01 in1016.3 mb 0.00 in0.0 mm 0.00 in0.0 mm 0.00 in0.0 mm
02:55 AM 38.5°F3.6°C 24.6°F-4.1°C 57% Calm Calm -- 30.01 in1016.3 mb 0.00 in0.0 mm 0.00 in0.0 mm 0.00 in0.0 mm
02:54 AM 38.3°F3.5°C 24.4°F-4.2°C 57% Calm Calm -- 30.01 in1016.3 mb 0.00 in0.0 mm 0.00 in0.0 mm 0.00 in0.0 mm
02:53 AM 38.3°F3.5°C 24.4°F-4.2°C 57% Calm Calm -- 30.01 in1016.3 mb 0.00 in0.0 mm 0.00 in0.0 mm 0.00 in0.0 mm
02:52 AM 38.3°F3.5°C 24.8°F-4.0°C 58% Calm Calm -- 30.01 in1016.3 mb 0.00 in0.0 mm 0.00 in0.0 mm 0.00 in0.0 mm
02:51 AM 38.3°F3.5°C 24.8°F-4.0°C 58% Calm Calm -- 30.00 in1015.9 mb 0.00 in0.0 mm 0.00 in0.0 mm 0.00 in0.0 mm
02:50 AM 38.1°F3.4°C 24.7°F-4.1°C 58% Calm Calm -- 30.00 in1015.9 mb 0.00 in0.0 mm 0.00 in0.0 mm 0.00 in0.0 mm
02:49 AM 38.1°F3.4°C 24.7°F-4.1°C 58% Calm Calm 0.7 mph1.1 kmh 30.00 in1015.9 mb 0.00 in0.0 mm 0.00 in0.0 mm 0.00 in0.0 mm
02:48 AM 38.1°F3.4°C 24.7°F-4.1°C 58% Calm Calm 0.7 mph1.1 kmh 30.00 in1015.9 mb 0.00 in0.0 mm 0.00 in0.0 mm 0.00 in0.0 mm
02:47 AM 38.1°F3.4°C 24.7°F-4.1°C 58% Calm Calm 0.7 mph1.1 kmh 30.00 in1015.9 mb 0.00 in0.0 mm 0.00 in0.0 mm 0.00 in0.0 mm
02:46 AM 37.9°F3.3°C 24.5°F-4.2°C 58% Calm Calm 0.7 mph1.1 kmh 30.01 in1016.3 mb 0.00 in0.0 mm 0.00 in0.0 mm 0.00 in0.0 mm
02:45 AM 37.9°F3.3°C 24.5°F-4.2°C 58% Calm Calm 0.7 mph1.1 kmh 30.01 in1016.3 mb 0.00 in0.0 mm 0.00 in0.0 mm 0.00 in0.0 mm
02:44 AM 37.9°F3.3°C 24.5°F-4.2°C 58% Calm Calm 0.7 mph1.1 kmh 30.01 in1016.3 mb 0.00 in0.0 mm 0.00 in0.0 mm 0.00 in0.0 mm
02:43 AM 37.9°F3.3°C 24.5°F-4.2°C 58% Calm Calm 0.7 mph1.1 kmh 30.01 in1016.3 mb 0.00 in0.0 mm 0.00 in0.0 mm 0.00 in0.0 mm
02:42 AM 37.9°F3.3°C 24.5°F-4.2°C 58% Calm Calm 1.6 mph2.6 kmh 30.01 in1016.3 mb 0.00 in0.0 mm 0.00 in0.0 mm 0.00 in0.0 mm
02:41 AM 37.9°F3.3°C 24.5°F-4.2°C 58% Calm Calm 1.6 mph2.6 kmh 30.01 in1016.3 mb 0.00 in0.0 mm 0.00 in0.0 mm 0.00 in0.0 mm
02:40 AM 37.8°F3.2°C 24.3°F-4.3°C 58% Calm Calm 1.6 mph2.6 kmh 30.01 in1016.3 mb 0.00 in0.0 mm 0.00 in0.0 mm 0.00 in0.0 mm
02:39 AM 37.8°F3.2°C 24.3°F-4.3°C 58% Calm Calm 1.6 mph2.6 kmh 30.01 in1016.3 mb 0.00 in0.0 mm 0.00 in0.0 mm 0.00 in0.0 mm
02:38 AM 37.8°F3.2°C 24.3°F-4.3°C 58% Calm Calm 2.2 mph3.5 kmh 30.01 in1016.3 mb 0.00 in0.0 mm 0.00 in0.0 mm 0.00 in0.0 mm
02:37 AM 37.6°F3.1°C 24.2°F-4.3°C 58% Calm Calm 2.2 mph3.5 kmh 30.01 in1016.3 mb 0.00 in0.0 mm 0.00 in0.0 mm 0.00 in0.0 mm
02:36 AM 37.6°F3.1°C 24.2°F-4.3°C 58% Calm Calm 2.2 mph3.5 kmh 30.01 in1016.3 mb 0.00 in0.0 mm 0.00 in0.0 mm 0.00 in0.0 mm
02:35 AM 37.8°F3.2°C 24.3°F-4.3°C 58% Calm Calm 2.2 mph3.5 kmh 30.01 in1016.3 mb 0.00 in0.0 mm 0.00 in0.0 mm 0.00 in0.0 mm
02:34 AM 37.6°F3.1°C 24.2°F-4.3°C 58% Calm Calm 2.2 mph3.5 kmh 30.01 in1016.3 mb 0.00 in0.0 mm 0.00 in0.0 mm 0.00 in0.0 mm
02:33 AM 37.6°F3.1°C 24.2°F-4.3°C 58% Calm Calm 2.2 mph3.5 kmh 30.01 in1016.3 mb 0.00 in0.0 mm 0.00 in0.0 mm 0.00 in0.0 mm
02:32 AM 37.4°F3.0°C 24.0°F-4.4°C 58% Calm Calm 2.2 mph3.5 kmh 30.01 in1016.3 mb 0.00 in0.0 mm 0.00 in0.0 mm 0.00 in0.0 mm
02:31 AM 37.4°F3.0°C 24.0°F-4.4°C 58% Calm Calm 2.2 mph3.5 kmh 30.02 in1016.6 mb 0.00 in0.0 mm 0.00 in0.0 mm 0.00 in0.0 mm
02:30 AM 37.4°F3.0°C 24.0°F-4.4°C 58% Calm Calm 2.2 mph3.5 kmh 30.02 in1016.6 mb 0.00 in0.0 mm 0.00 in0.0 mm 0.00 in0.0 mm
02:29 AM 37.4°F3.0°C 24.0°F-4.4°C 58% Calm Calm 2.2 mph3.5 kmh 30.02 in1016.6 mb 0.00 in0.0 mm 0.00 in0.0 mm 0.00 in0.0 mm
02:28 AM 37.2°F2.9°C 23.8°F-4.6°C 58% 0.7 mph SSW1.1 kmh SSW 3.8 mph6.1 kmh 30.02 in1016.6 mb 0.00 in0.0 mm 0.00 in0.0 mm 0.00 in0.0 mm
02:27 AM 37.2°F2.9°C 23.8°F-4.6°C 58% Calm Calm 3.8 mph6.1 kmh 30.02 in1016.6 mb 0.00 in0.0 mm 0.00 in0.0 mm 0.00 in0.0 mm
02:26 AM 37.2°F2.9°C 23.8°F-4.6°C 58% Calm Calm 4.5 mph7.2 kmh 30.02 in1016.6 mb 0.00 in0.0 mm 0.00 in0.0 mm 0.00 in0.0 mm
02:25 AM 37.2°F2.9°C 23.8°F-4.6°C 58% Calm Calm 5.4 mph8.7 kmh 30.02 in1016.6 mb 0.00 in0.0 mm 0.00 in0.0 mm 0.00 in0.0 mm
02:24 AM 37.2°F2.9°C 23.4°F-4.8°C 57% Calm Calm 5.4 mph8.7 kmh 30.02 in1016.6 mb 0.00 in0.0 mm 0.00 in0.0 mm 0.00 in0.0 mm
02:23 AM 37.4°F3.0°C 23.6°F-4.7°C 57% 0.7 mph SW1.1 kmh SW 5.4 mph8.7 kmh 30.03 in1016.9 mb 0.00 in0.0 mm 0.00 in0.0 mm 0.00 in0.0 mm
02:22 AM 37.4°F3.0°C 23.6°F-4.7°C 57% Calm Calm 5.4 mph8.7 kmh 30.03 in1016.9 mb 0.00 in0.0 mm 0.00 in0.0 mm 0.00 in0.0 mm
02:21 AM 37.4°F3.0°C 23.6°F-4.7°C 57% 0.7 mph SW1.1 kmh SW 5.4 mph8.7 kmh 30.02 in1016.6 mb 0.00 in0.0 mm 0.00 in0.0 mm 0.00 in0.0 mm
02:20 AM 37.4°F3.0°C 23.6°F-4.7°C 57% Calm Calm 5.4 mph8.7 kmh 30.02 in1016.6 mb 0.00 in0.0 mm 0.00 in0.0 mm 0.00 in0.0 mm
02:19 AM 37.4°F3.0°C 23.6°F-4.7°C 57% Calm Calm 5.4 mph8.7 kmh 30.03 in1016.9 mb 0.00 in0.0 mm 0.00 in0.0 mm 0.00 in0.0 mm
02:18 AM 37.2°F2.9°C 23.4°F-4.8°C 57% 0.7 mph SW1.1 kmh SW 5.4 mph8.7 kmh 30.03 in1016.9 mb 0.00 in0.0 mm 0.00 in0.0 mm 0.00 in0.0 mm
02:17 AM 37.2°F2.9°C 23.0°F-5.0°C 56% Calm Calm 5.4 mph8.7 kmh 30.02 in1016.6 mb 0.00 in0.0 mm 0.00 in0.0 mm 0.00 in0.0 mm
02:16 AM 37.0°F2.8°C 22.8°F-5.1°C 56% 2.2 mph SW3.5 kmh SW 5.4 mph8.7 kmh 30.03 in1016.9 mb 0.00 in0.0 mm 0.00 in0.0 mm 0.00 in0.0 mm
02:15 AM 37.0°F2.8°C 22.8°F-5.1°C 56% Calm Calm 5.4 mph8.7 kmh 30.02 in1016.6 mb 0.00 in0.0 mm 0.00 in0.0 mm 0.00 in0.0 mm
02:14 AM 37.0°F2.8°C 22.8°F-5.1°C 56% Calm Calm 5.4 mph8.7 kmh 30.02 in1016.6 mb 0.00 in0.0 mm 0.00 in0.0 mm 0.00 in0.0 mm
02:13 AM 36.9°F2.7°C 22.7°F-5.2°C 56% 2.2 mph SSW3.5 kmh SSW 5.4 mph8.7 kmh 30.03 in1016.9 mb 0.00 in0.0 mm 0.00 in0.0 mm 0.00 in0.0 mm
02:12 AM 36.9°F2.7°C 22.7°F-5.2°C 56% 0.7 mph S1.1 kmh S 3.8 mph6.1 kmh 30.02 in1016.6 mb 0.00 in0.0 mm 0.00 in0.0 mm 0.00 in0.0 mm
02:11 AM 36.9°F2.7°C 22.2°F-5.4°C 55% Calm Calm 1.6 mph2.6 kmh 30.03 in1016.9 mb 0.00 in0.0 mm 0.00 in0.0 mm 0.00 in0.0 mm
02:10 AM 37.0°F2.8°C 22.4°F-5.3°C 55% Calm Calm 1.6 mph2.6 kmh 30.03 in1016.9 mb 0.00 in0.0 mm 0.00 in0.0 mm 0.00 in0.0 mm
02:09 AM 37.0°F2.8°C 22.0°F-5.6°C 54% Calm Calm 1.6 mph2.6 kmh 30.03 in1016.9 mb 0.00 in0.0 mm 0.00 in0.0 mm 0.00 in0.0 mm
02:08 AM 37.0°F2.8°C 22.0°F-5.6°C 54% Calm Calm 1.6 mph2.6 kmh 30.03 in1016.9 mb 0.00 in0.0 mm 0.00 in0.0 mm 0.00 in0.0 mm
02:07 AM 37.2°F2.9°C 22.1°F-5.5°C 54% Calm Calm 1.6 mph2.6 kmh 30.03 in1016.9 mb 0.00 in0.0 mm 0.00 in0.0 mm 0.00 in0.0 mm
02:06 AM 37.2°F2.9°C 22.1°F-5.5°C 54% Calm Calm 1.6 mph2.6 kmh 30.04 in1017.3 mb 0.00 in0.0 mm 0.00 in0.0 mm 0.00 in0.0 mm
02:05 AM 37.2°F2.9°C 22.1°F-5.5°C 54% Calm Calm 1.6 mph2.6 kmh 30.03 in1016.9 mb 0.00 in0.0 mm 0.00 in0.0 mm 0.00 in0.0 mm
02:04 AM 37.2°F2.9°C 22.1°F-5.5°C 54% Calm Calm 1.6 mph2.6 kmh 30.03 in1016.9 mb 0.00 in0.0 mm 0.00 in0.0 mm 0.00 in0.0 mm
02:03 AM 37.2°F2.9°C 22.1°F-5.5°C 54% Calm Calm 1.6 mph2.6 kmh 30.03 in1016.9 mb 0.00 in0.0 mm 0.00 in0.0 mm 0.00 in0.0 mm
02:02 AM 37.2°F2.9°C 22.1°F-5.5°C 54% Calm Calm 1.6 mph2.6 kmh 30.03 in1016.9 mb 0.00 in0.0 mm 0.00 in0.0 mm 0.00 in0.0 mm
02:01 AM 37.2°F2.9°C 22.1°F-5.5°C 54% Calm Calm 1.6 mph2.6 kmh 30.03 in1016.9 mb 0.00 in0.0 mm 0.00 in0.0 mm 0.00 in0.0 mm
02:00 AM 37.2°F2.9°C 22.1°F-5.5°C 54% Calm Calm 1.6 mph2.6 kmh 30.03 in1016.9 mb 0.00 in0.0 mm 0.00 in0.0 mm 0.00 in0.0 mm
01:59 AM 37.2°F2.9°C 22.1°F-5.5°C 54% Calm Calm -- 30.03 in1016.9 mb 0.00 in0.0 mm 0.00 in0.0 mm 0.00 in0.0 mm
01:58 AM 37.2°F2.9°C 22.1°F-5.5°C 54% Calm Calm -- 30.03 in1016.9 mb 0.00 in0.0 mm 0.00 in0.0 mm 0.00 in0.0 mm
01:57 AM 37.2°F2.9°C 22.1°F-5.5°C 54% Calm Calm -- 30.03 in1016.9 mb 0.00 in0.0 mm 0.00 in0.0 mm 0.00 in0.0 mm
01:56 AM 37.2°F2.9°C 22.1°F-5.5°C 54% Calm Calm -- 30.03 in1016.9 mb 0.00 in0.0 mm 0.00 in0.0 mm 0.00 in0.0 mm
01:55 AM 37.2°F2.9°C 22.1°F-5.5°C 54% Calm Calm -- 30.03 in1016.9 mb 0.00 in0.0 mm 0.00 in0.0 mm 0.00 in0.0 mm
01:54 AM 37.4°F3.0°C 22.3°F-5.4°C 54% Calm Calm -- 30.03 in1016.9 mb 0.00 in0.0 mm 0.00 in0.0 mm 0.00 in0.0 mm
01:53 AM 37.4°F3.0°C 22.3°F-5.4°C 54% Calm Calm -- 30.04 in1017.3 mb 0.00 in0.0 mm 0.00 in0.0 mm 0.00 in0.0 mm
01:52 AM 37.4°F3.0°C 22.3°F-5.4°C 54% Calm Calm -- 30.03 in1016.9 mb 0.00 in0.0 mm 0.00 in0.0 mm 0.00 in0.0 mm
01:51 AM 37.4°F3.0°C 22.3°F-5.4°C 54% Calm Calm -- 30.03 in1016.9 mb 0.00 in0.0 mm 0.00 in0.0 mm 0.00 in0.0 mm
01:50 AM 37.4°F3.0°C 22.3°F-5.4°C 54% Calm Calm -- 30.03 in1016.9 mb 0.00 in0.0 mm 0.00 in0.0 mm 0.00 in0.0 mm
01:49 AM 37.4°F3.0°C 22.7°F-5.2°C 55% Calm Calm -- 30.02 in1016.6 mb 0.00 in0.0 mm 0.00 in0.0 mm 0.00 in0.0 mm
01:48 AM 37.4°F3.0°C 22.7°F-5.2°C 55% Calm Calm -- 30.03 in1016.9 mb 0.00 in0.0 mm 0.00 in0.0 mm 0.00 in0.0 mm
01:47 AM 37.4°F3.0°C 22.3°F-5.4°C 54% Calm Calm -- 30.03 in1016.9 mb 0.00 in0.0 mm 0.00 in0.0 mm 0.00 in0.0 mm
01:46 AM 37.4°F3.0°C 22.3°F-5.4°C 54% Calm Calm -- 30.03 in1016.9 mb 0.00 in0.0 mm 0.00 in0.0 mm 0.00 in0.0 mm
01:45 AM 37.4°F3.0°C 22.3°F-5.4°C 54% Calm Calm -- 30.03 in1016.9 mb 0.00 in0.0 mm 0.00 in0.0 mm 0.00 in0.0 mm
01:44 AM 37.4°F3.0°C 22.3°F-5.4°C 54% Calm Calm -- 30.03 in1016.9 mb 0.00 in0.0 mm 0.00 in0.0 mm 0.00 in0.0 mm
01:43 AM 37.6°F3.1°C 22.5°F-5.3°C 54% Calm Calm -- 30.03 in1016.9 mb 0.00 in0.0 mm 0.00 in0.0 mm 0.00 in0.0 mm
01:42 AM 37.6°F3.1°C 22.5°F-5.3°C 54% Calm Calm -- 30.03 in1016.9 mb 0.00 in0.0 mm 0.00 in0.0 mm 0.00 in0.0 mm
01:41 AM 37.6°F3.1°C 22.5°F-5.3°C 54% Calm Calm -- 30.03 in1016.9 mb 0.00 in0.0 mm 0.00 in0.0 mm 0.00 in0.0 mm
01:40 AM 37.6°F3.1°C 22.5°F-5.3°C 54% Calm Calm -- 30.03 in1016.9 mb 0.00 in0.0 mm 0.00 in0.0 mm 0.00 in0.0 mm
01:39 AM 37.6°F3.1°C 22.5°F-5.3°C 54% Calm Calm -- 30.03 in1016.9 mb 0.00 in0.0 mm 0.00 in0.0 mm 0.00 in0.0 mm
01:38 AM 37.6°F3.1°C 22.5°F-5.3°C 54% Calm Calm -- 30.03 in1016.9 mb 0.00 in0.0 mm 0.00 in0.0 mm 0.00 in0.0 mm
01:37 AM 37.6°F3.1°C 22.5°F-5.3°C 54% Calm Calm -- 30.03 in1016.9 mb 0.00 in0.0 mm 0.00 in0.0 mm 0.00 in0.0 mm
01:36 AM 37.6°F3.1°C 22.5°F-5.3°C 54% Calm Calm 1.6 mph2.6 kmh 30.03 in1016.9 mb 0.00 in0.0 mm 0.00 in0.0 mm 0.00 in0.0 mm
01:35 AM 37.6°F3.1°C 22.5°F-5.3°C 54% Calm Calm 1.6 mph2.6 kmh 30.04 in1017.3 mb 0.00 in0.0 mm 0.00 in0.0 mm 0.00 in0.0 mm
01:34 AM 37.6°F3.1°C 22.5°F-5.3°C 54% Calm Calm 1.6 mph2.6 kmh 30.04 in1017.3 mb 0.00 in0.0 mm 0.00 in0.0 mm 0.00 in0.0 mm
01:33 AM 37.6°F3.1°C 22.5°F-5.3°C 54% Calm Calm 1.6 mph2.6 kmh 30.04 in1017.3 mb 0.00 in0.0 mm 0.00 in0.0 mm 0.00 in0.0 mm
01:32 AM 37.8°F3.2°C 22.6°F-5.2°C 54% Calm Calm 1.6 mph2.6 kmh 30.03 in1016.9 mb 0.00 in0.0 mm 0.00 in0.0 mm 0.00 in0.0 mm
01:31 AM 37.8°F3.2°C 22.6°F-5.2°C 54% Calm Calm 1.6 mph2.6 kmh 30.03 in1016.9 mb 0.00 in0.0 mm 0.00 in0.0 mm 0.00 in0.0 mm
01:30 AM 37.8°F3.2°C 22.6°F-5.2°C 54% Calm Calm 1.6 mph2.6 kmh 30.04 in1017.3 mb 0.00 in0.0 mm 0.00 in0.0 mm 0.00 in0.0 mm
01:29 AM 37.8°F3.2°C 22.6°F-5.2°C 54% Calm Calm 1.6 mph2.6 kmh 30.03 in1016.9 mb 0.00 in0.0 mm 0.00 in0.0 mm 0.00 in0.0 mm
01:28 AM 37.8°F3.2°C 22.6°F-5.2°C 54% Calm Calm 1.6 mph2.6 kmh 30.04 in1017.3 mb 0.00 in0.0 mm 0.00 in0.0 mm 0.00 in0.0 mm
01:27 AM 37.8°F3.2°C 23.1°F-4.9°C 55% Calm Calm 1.6 mph2.6 kmh 30.03 in1016.9 mb 0.00 in0.0 mm 0.00 in0.0 mm 0.00 in0.0 mm
01:26 AM 37.8°F3.2°C 23.1°F-4.9°C 55% Calm Calm 1.6 mph2.6 kmh 30.04 in1017.3 mb 0.00 in0.0 mm 0.00 in0.0 mm 0.00 in0.0 mm
01:25 AM 37.9°F3.3°C 22.8°F-5.1°C 54% Calm Calm 1.6 mph2.6 kmh 30.04 in1017.3 mb 0.00 in0.0 mm 0.00 in0.0 mm 0.00 in0.0 mm
01:24 AM 37.9°F3.3°C 22.8°F-5.1°C 54% Calm Calm -- 30.03 in1016.9 mb 0.00 in0.0 mm 0.00 in0.0 mm 0.00 in0.0 mm
01:23 AM 37.9°F3.3°C 22.8°F-5.1°C 54% Calm Calm -- 30.02 in1016.6 mb 0.00 in0.0 mm 0.00 in0.0 mm 0.00 in0.0 mm
01:22 AM 37.9°F3.3°C 22.8°F-5.1°C 54% Calm Calm -- 30.02 in1016.6 mb 0.00 in0.0 mm 0.00 in0.0 mm 0.00 in0.0 mm
01:21 AM 37.9°F3.3°C 22.8°F-5.1°C 54% Calm Calm -- 30.02 in1016.6 mb 0.00 in0.0 mm 0.00 in0.0 mm 0.00 in0.0 mm
01:20 AM 37.9°F3.3°C 22.8°F-5.1°C 54% Calm Calm -- 30.02 in1016.6 mb 0.00 in0.0 mm 0.00 in0.0 mm 0.00 in0.0 mm
01:19 AM 37.9°F3.3°C 22.8°F-5.1°C 54% Calm Calm -- 30.03 in1016.9 mb 0.00 in0.0 mm 0.00 in0.0 mm 0.00 in0.0 mm
01:18 AM 37.9°F3.3°C 22.8°F-5.1°C 54% Calm Calm 1.6 mph2.6 kmh 30.03 in1016.9 mb 0.00 in0.0 mm 0.00 in0.0 mm 0.00 in0.0 mm
01:17 AM 37.9°F3.3°C 22.8°F-5.1°C 54% Calm Calm 1.6 mph2.6 kmh 30.03 in1016.9 mb 0.00 in0.0 mm 0.00 in0.0 mm 0.00 in0.0 mm
01:16 AM 37.9°F3.3°C 22.8°F-5.1°C 54% Calm Calm 1.6 mph2.6 kmh 30.03 in1016.9 mb 0.00 in0.0 mm 0.00 in0.0 mm 0.00 in0.0 mm
01:15 AM 37.9°F3.3°C 22.4°F-5.3°C 53% Calm Calm 1.6 mph2.6 kmh 30.03 in1016.9 mb 0.00 in0.0 mm 0.00 in0.0 mm 0.00 in0.0 mm
01:14 AM 37.9°F3.3°C 22.8°F-5.1°C 54% Calm Calm 1.6 mph2.6 kmh 30.04 in1017.3 mb 0.00 in0.0 mm 0.00 in0.0 mm 0.00 in0.0 mm
01:13 AM 37.9°F3.3°C 22.8°F-5.1°C 54% Calm Calm 1.6 mph2.6 kmh 30.03 in1016.9 mb 0.00 in0.0 mm 0.00 in0.0 mm 0.00 in0.0 mm
01:12 AM 37.9°F3.3°C 22.4°F-5.3°C 53% Calm Calm 1.6 mph2.6 kmh 30.03 in1016.9 mb 0.00 in0.0 mm 0.00 in0.0 mm 0.00 in0.0 mm
01:11 AM 38.1°F3.4°C 22.5°F-5.3°C 53% Calm Calm 1.6 mph2.6 kmh 30.03 in1016.9 mb 0.00 in0.0 mm 0.00 in0.0 mm 0.00 in0.0 mm
01:10 AM 38.1°F3.4°C 22.5°F-5.3°C 53% Calm Calm 1.6 mph2.6 kmh 30.03 in1016.9 mb 0.00 in0.0 mm 0.00 in0.0 mm 0.00 in0.0 mm
01:09 AM 38.1°F3.4°C 22.5°F-5.3°C 53% Calm Calm 1.6 mph2.6 kmh 30.04 in1017.3 mb 0.00 in0.0 mm 0.00 in0.0 mm 0.00 in0.0 mm
01:08 AM 38.1°F3.4°C 22.5°F-5.3°C 53% Calm Calm 1.6 mph2.6 kmh 30.04 in1017.3 mb 0.00 in0.0 mm 0.00 in0.0 mm 0.00 in0.0 mm
01:07 AM 38.1°F3.4°C 22.1°F-5.5°C 52% Calm Calm -- 30.05 in1017.6 mb 0.00 in0.0 mm 0.00 in0.0 mm 0.00 in0.0 mm
01:06 AM 38.1°F3.4°C 22.1°F-5.5°C 52% Calm Calm -- 30.04 in1017.3 mb 0.00 in0.0 mm 0.00 in0.0 mm 0.00 in0.0 mm
01:05 AM 38.1°F3.4°C 22.1°F-5.5°C 52% Calm Calm -- 30.04 in1017.3 mb 0.00 in0.0 mm 0.00 in0.0 mm 0.00 in0.0 mm
01:04 AM 38.1°F3.4°C 22.1°F-5.5°C 52% Calm Calm -- 30.04 in1017.3 mb 0.00 in0.0 mm 0.00 in0.0 mm 0.00 in0.0 mm
01:03 AM 38.1°F3.4°C 22.1°F-5.5°C 52% Calm Calm -- 30.04 in1017.3 mb 0.00 in0.0 mm 0.00 in0.0 mm 0.00 in0.0 mm
01:02 AM 38.1°F3.4°C 22.1°F-5.5°C 52% Calm Calm -- 30.04 in1017.3 mb 0.00 in0.0 mm 0.00 in0.0 mm 0.00 in0.0 mm
01:01 AM 38.1°F3.4°C 22.1°F-5.5°C 52% Calm Calm -- 30.05 in1017.6 mb 0.00 in0.0 mm 0.00 in0.0 mm 0.00 in0.0 mm
01:00 AM 38.1°F3.4°C 22.1°F-5.5°C 52% Calm Calm -- 30.04 in1017.3 mb 0.00 in0.0 mm 0.00 in0.0 mm 0.00 in0.0 mm
12:59 AM 38.1°F3.4°C 22.1°F-5.5°C 52% Calm Calm -- 30.04 in1017.3 mb 0.00 in0.0 mm 0.00 in0.0 mm 0.00 in0.0 mm
12:58 AM 37.9°F3.3°C 21.9°F-5.6°C 52% Calm Calm -- 30.05 in1017.6 mb 0.00 in0.0 mm 0.00 in0.0 mm 0.00 in0.0 mm
12:57 AM 38.1°F3.4°C 22.1°F-5.5°C 52% Calm Calm 0.7 mph1.1 kmh 30.05 in1017.6 mb 0.00 in0.0 mm 0.00 in0.0 mm 0.00 in0.0 mm
12:56 AM 38.1°F3.4°C 22.1°F-5.5°C 52% Calm Calm 0.7 mph1.1 kmh 30.05 in1017.6 mb 0.00 in0.0 mm 0.00 in0.0 mm 0.00 in0.0 mm
12:55 AM 38.1°F3.4°C 22.1°F-5.5°C 52% Calm Calm 0.7 mph1.1 kmh 30.05 in1017.6 mb 0.00 in0.0 mm 0.00 in0.0 mm 0.00 in0.0 mm
12:54 AM 37.9°F3.3°C 21.9°F-5.6°C 52% Calm Calm 0.7 mph1.1 kmh 30.05 in1017.6 mb 0.00 in0.0 mm 0.00 in0.0 mm 0.00 in0.0 mm
12:53 AM 38.1°F3.4°C 22.1°F-5.5°C 52% Calm Calm 0.7 mph1.1 kmh 30.05 in1017.6 mb 0.00 in0.0 mm 0.00 in0.0 mm 0.00 in0.0 mm
12:52 AM 38.1°F3.4°C 21.6°F-5.8°C 51% Calm Calm 0.7 mph1.1 kmh 30.05 in1017.6 mb 0.00 in0.0 mm 0.00 in0.0 mm 0.00 in0.0 mm
12:51 AM 38.1°F3.4°C 21.6°F-5.8°C 51% Calm Calm 0.7 mph1.1 kmh 30.05 in1017.6 mb 0.00 in0.0 mm 0.00 in0.0 mm 0.00 in0.0 mm
12:50 AM 37.9°F3.3°C 21.4°F-5.9°C 51% Calm Calm 0.7 mph1.1 kmh 30.06 in1017.9 mb 0.00 in0.0 mm 0.00 in0.0 mm 0.00 in0.0 mm
12:49 AM 38.1°F3.4°C 22.1°F-5.5°C 52% Calm Calm 0.7 mph1.1 kmh 30.06 in1017.9 mb 0.00 in0.0 mm 0.00 in0.0 mm 0.00 in0.0 mm
12:48 AM 37.9°F3.3°C 21.9°F-5.6°C 52% Calm Calm 0.7 mph1.1 kmh 30.06 in1017.9 mb 0.00 in0.0 mm 0.00 in0.0 mm 0.00 in0.0 mm
12:47 AM 38.1°F3.4°C 22.1°F-5.5°C 52% Calm Calm 0.7 mph1.1 kmh 30.06 in1017.9 mb 0.00 in0.0 mm 0.00 in0.0 mm 0.00 in0.0 mm
12:46 AM 37.9°F3.3°C 21.4°F-5.9°C 51% Calm Calm 0.7 mph1.1 kmh 30.06 in1017.9 mb 0.00 in0.0 mm 0.00 in0.0 mm 0.00 in0.0 mm
12:45 AM 37.9°F3.3°C 21.4°F-5.9°C 51% Calm Calm 0.7 mph1.1 kmh 30.06 in1017.9 mb 0.00 in0.0 mm 0.00 in0.0 mm 0.00 in0.0 mm
12:44 AM 37.9°F3.3°C 21.4°F-5.9°C 51% Calm Calm 0.7 mph1.1 kmh 30.06 in1017.9 mb 0.00 in0.0 mm 0.00 in0.0 mm 0.00 in0.0 mm
12:43 AM 37.9°F3.3°C 21.4°F-5.9°C 51% Calm Calm 0.7 mph1.1 kmh 30.06 in1017.9 mb 0.00 in0.0 mm 0.00 in0.0 mm 0.00 in0.0 mm
12:42 AM 37.9°F3.3°C 21.4°F-5.9°C 51% Calm Calm 0.7 mph1.1 kmh 30.06 in1017.9 mb 0.00 in0.0 mm 0.00 in0.0 mm 0.00 in0.0 mm
12:41 AM 37.8°F3.2°C 21.3°F-5.9°C 51% Calm Calm 0.7 mph1.1 kmh 30.06 in1017.9 mb 0.00 in0.0 mm 0.00 in0.0 mm 0.00 in0.0 mm
12:40 AM 37.8°F3.2°C 21.3°F-5.9°C 51% Calm Calm 0.7 mph1.1 kmh 30.06 in1017.9 mb 0.00 in0.0 mm 0.00 in0.0 mm 0.00 in0.0 mm
12:39 AM 37.8°F3.2°C 21.3°F-5.9°C 51% Calm Calm 0.7 mph1.1 kmh 30.07 in1018.3 mb 0.00 in0.0 mm 0.00 in0.0 mm 0.00 in0.0 mm
12:38 AM 37.8°F3.2°C 21.3°F-5.9°C 51% Calm Calm 0.7 mph1.1 kmh 30.06 in1017.9 mb 0.00 in0.0 mm 0.00 in0.0 mm 0.00 in0.0 mm
12:37 AM 37.8°F3.2°C 21.3°F-5.9°C 51% Calm Calm 0.7 mph1.1 kmh 30.06 in1017.9 mb 0.00 in0.0 mm 0.00 in0.0 mm 0.00 in0.0 mm
12:36 AM 37.8°F3.2°C 20.8°F-6.2°C 50% Calm Calm 1.6 mph2.6 kmh 30.06 in1017.9 mb 0.00 in0.0 mm 0.00 in0.0 mm 0.00 in0.0 mm
12:35 AM 37.8°F3.2°C 20.8°F-6.2°C 50% Calm Calm 1.6 mph2.6 kmh 30.06 in1017.9 mb 0.00 in0.0 mm 0.00 in0.0 mm 0.00 in0.0 mm
12:34 AM 37.8°F3.2°C 20.3°F-6.5°C 49% Calm Calm 1.6 mph2.6 kmh 30.06 in1017.9 mb 0.00 in0.0 mm 0.00 in0.0 mm 0.00 in0.0 mm
12:33 AM 37.8°F3.2°C 20.3°F-6.5°C 49% Calm Calm 1.6 mph2.6 kmh 30.07 in1018.3 mb 0.00 in0.0 mm 0.00 in0.0 mm 0.00 in0.0 mm
12:32 AM 37.9°F3.3°C 20.5°F-6.4°C 49% Calm Calm 1.6 mph2.6 kmh 30.07 in1018.3 mb 0.00 in0.0 mm 0.00 in0.0 mm 0.00 in0.0 mm
12:31 AM 37.9°F3.3°C 20.5°F-6.4°C 49% Calm Calm 1.6 mph2.6 kmh 30.07 in1018.3 mb 0.00 in0.0 mm 0.00 in0.0 mm 0.00 in0.0 mm
12:30 AM 37.9°F3.3°C 20.0°F-6.7°C 48% Calm Calm 1.6 mph2.6 kmh 30.07 in1018.3 mb 0.00 in0.0 mm 0.00 in0.0 mm 0.00 in0.0 mm
12:29 AM 37.9°F3.3°C 20.0°F-6.7°C 48% Calm Calm 1.6 mph2.6 kmh 30.07 in1018.3 mb 0.00 in0.0 mm 0.00 in0.0 mm 0.00 in0.0 mm
12:28 AM 38.1°F3.4°C 20.2°F-6.6°C 48% Calm Calm 1.6 mph2.6 kmh 30.07 in1018.3 mb 0.00 in0.0 mm 0.00 in0.0 mm 0.00 in0.0 mm
12:27 AM 38.1°F3.4°C 20.2°F-6.6°C 48% Calm Calm 1.6 mph2.6 kmh 30.07 in1018.3 mb 0.00 in0.0 mm 0.00 in0.0 mm 0.00 in0.0 mm
12:26 AM 38.1°F3.4°C 20.2°F-6.6°C 48% Calm Calm 1.6 mph2.6 kmh 30.07 in1018.3 mb 0.00 in0.0 mm 0.00 in0.0 mm 0.00 in0.0 mm
12:25 AM 38.3°F3.5°C 19.9°F-6.7°C 47% Calm Calm 1.6 mph2.6 kmh 30.07 in1018.3 mb 0.00 in0.0 mm 0.00 in0.0 mm 0.00 in0.0 mm
12:24 AM 38.3°F3.5°C 19.9°F-6.7°C 47% Calm Calm 1.6 mph2.6 kmh 30.08 in1018.6 mb 0.00 in0.0 mm 0.00 in0.0 mm 0.00 in0.0 mm
12:23 AM 38.3°F3.5°C 19.9°F-6.7°C 47% Calm Calm 1.6 mph2.6 kmh 30.08 in1018.6 mb 0.00 in0.0 mm 0.00 in0.0 mm 0.00 in0.0 mm
12:22 AM 38.5°F3.6°C 20.0°F-6.7°C 47% Calm Calm 1.6 mph2.6 kmh 30.08 in1018.6 mb 0.00 in0.0 mm 0.00 in0.0 mm 0.00 in0.0 mm
12:21 AM 38.5°F3.6°C 20.0°F-6.7°C 47% Calm Calm 1.6 mph2.6 kmh 30.08 in1018.6 mb 0.00 in0.0 mm 0.00 in0.0 mm 0.00 in0.0 mm
12:20 AM 38.5°F3.6°C 20.0°F-6.7°C 47% Calm Calm 1.6 mph2.6 kmh 30.08 in1018.6 mb 0.00 in0.0 mm 0.00 in0.0 mm 0.00 in0.0 mm
12:19 AM 38.5°F3.6°C 20.0°F-6.7°C 47% Calm Calm 0.7 mph1.1 kmh 30.07 in1018.3 mb 0.00 in0.0 mm 0.00 in0.0 mm 0.00 in0.0 mm
12:18 AM 38.5°F3.6°C 20.0°F-6.7°C 47% Calm Calm 0.7 mph1.1 kmh 30.07 in1018.3 mb 0.00 in0.0 mm 0.00 in0.0 mm 0.00 in0.0 mm
12:17 AM 38.5°F3.6°C 20.0°F-6.7°C 47% Calm Calm 0.7 mph1.1 kmh 30.08 in1018.6 mb 0.00 in0.0 mm 0.00 in0.0 mm 0.00 in0.0 mm
12:16 AM 38.5°F3.6°C 20.0°F-6.7°C 47% Calm Calm 0.7 mph1.1 kmh 30.08 in1018.6 mb 0.00 in0.0 mm 0.00 in0.0 mm 0.00 in0.0 mm
12:15 AM 38.5°F3.6°C 20.0°F-6.7°C 47% Calm Calm 0.7 mph1.1 kmh 30.07 in1018.3 mb 0.00 in0.0 mm 0.00 in0.0 mm 0.00 in0.0 mm
12:14 AM 38.5°F3.6°C 20.0°F-6.7°C 47% Calm Calm 0.7 mph1.1 kmh 30.07 in1018.3 mb 0.00 in0.0 mm 0.00 in0.0 mm 0.00 in0.0 mm
12:13 AM 38.5°F3.6°C 20.0°F-6.7°C 47% Calm Calm 0.7 mph1.1 kmh 30.07 in1018.3 mb 0.00 in0.0 mm 0.00 in0.0 mm 0.00 in0.0 mm
12:12 AM 38.5°F3.6°C 20.0°F-6.7°C 47% Calm Calm 0.7 mph1.1 kmh 30.07 in1018.3 mb 0.00 in0.0 mm 0.00 in0.0 mm 0.00 in0.0 mm
12:11 AM 38.1°F3.4°C 20.2°F-6.6°C 48% Calm Calm 0.7 mph1.1 kmh 30.07 in1018.3 mb 0.00 in0.0 mm 0.00 in0.0 mm 0.00 in0.0 mm
12:10 AM 38.1°F3.4°C 20.2°F-6.6°C 48% Calm Calm 0.7 mph1.1 kmh 30.07 in1018.3 mb 0.00 in0.0 mm 0.00 in0.0 mm 0.00 in0.0 mm
12:09 AM 38.1°F3.4°C 20.2°F-6.6°C 48% Calm Calm 0.7 mph1.1 kmh 30.07 in1018.3 mb 0.00 in0.0 mm 0.00 in0.0 mm 0.00 in0.0 mm
12:08 AM 38.1°F3.4°C 20.2°F-6.6°C 48% Calm Calm 0.7 mph1.1 kmh 30.07 in1018.3 mb 0.00 in0.0 mm 0.00 in0.0 mm 0.00 in0.0 mm
12:07 AM 38.1°F3.4°C 20.2°F-6.6°C 48% Calm Calm 0.7 mph1.1 kmh 30.07 in1018.3 mb 0.00 in0.0 mm 0.00 in0.0 mm 0.00 in0.0 mm
12:06 AM 38.1°F3.4°C 20.2°F-6.6°C 48% Calm Calm 0.7 mph1.1 kmh 30.07 in1018.3 mb 0.00 in0.0 mm 0.00 in0.0 mm 0.00 in0.0 mm
12:05 AM 38.1°F3.4°C 20.2°F-6.6°C 48% Calm Calm 0.7 mph1.1 kmh 30.07 in1018.3 mb 0.00 in0.0 mm 0.00 in0.0 mm 0.00 in0.0 mm
12:04 AM 38.1°F3.4°C 20.2°F-6.6°C 48% Calm Calm 0.7 mph1.1 kmh 30.06 in1017.9 mb 0.00 in0.0 mm 0.00 in0.0 mm 0.00 in0.0 mm
12:03 AM 38.1°F3.4°C 20.2°F-6.6°C 48% Calm Calm 0.7 mph1.1 kmh 30.06 in1017.9 mb 0.00 in0.0 mm 0.00 in0.0 mm 0.00 in0.0 mm
12:02 AM 38.1°F3.4°C 20.2°F-6.6°C 48% Calm Calm 0.7 mph1.1 kmh 30.06 in1017.9 mb 0.00 in0.0 mm 0.00 in0.0 mm 0.00 in0.0 mm
12:01 AM 38.1°F3.4°C 20.2°F-6.6°C 48% Calm Calm 0.7 mph1.1 kmh 30.07 in1018.3 mb 0.00 in0.0 mm 0.00 in0.0 mm 0.00 in0.0 mm
12:00 AM 38.1°F3.4°C 20.2°F-6.6°C 48% Calm Calm 0.7 mph1.1 kmh 30.07 in1018.3 mb 0.00 in0.0 mm 0.00 in0.0 mm 0.00 in0.0 mm